<?xml version="1.0" encoding="UTF-8" standalone="no" ?>
<gpx xmlns="http://www.topografix.com/GPX/1/1" xmlns:xsi="http://www.w3.org/2001/XMLSchema-instance" xsi:schemaLocation="http://www.topografix.com/GPX/1/1 http://www.topografix.com/GPX/1/1/gpx.xsd" version="1.1" creator="VisuGPX - https://www.visugpx.com">
  <metadata>
    <name>1ere Randi Sentiers de Campan (parie enregistrée)</name>
    <desc><![CDATA[

comment ...]]></desc>
  </metadata>
  <trk>
    <name><![CDATA[1ere Randi Sentiers de Campan (parie enregistrée)]]></name>
    <desc><![CDATA[comment ...]]></desc>
    <extensions>
      <line xmlns="http://www.topografix.com/GPX/gpx_style/0/2">
        <color>0000FF</color>
        <width>4</width>
      </line>
    </extensions>
    <trkseg>
      <trkpt lat="42.99796" lon="0.18507">
        <ele>914</ele>
        <time>2021-06-19T10:07:00Z</time>
      </trkpt>
      <trkpt lat="42.99798" lon="0.18507">
        <ele>916</ele>
        <time>2021-06-19T10:07:01Z</time>
      </trkpt>
      <trkpt lat="42.99794" lon="0.18498">
        <ele>971</ele>
        <time>2021-06-19T10:08:22Z</time>
      </trkpt>
      <trkpt lat="42.99793" lon="0.1849">
        <ele>978</ele>
        <time>2021-06-19T10:08:55Z</time>
      </trkpt>
      <trkpt lat="42.99792" lon="0.18484">
        <ele>980</ele>
        <time>2021-06-19T10:09:04Z</time>
      </trkpt>
      <trkpt lat="42.99788" lon="0.18476">
        <ele>980</ele>
        <time>2021-06-19T10:09:16Z</time>
      </trkpt>
      <trkpt lat="42.99784" lon="0.18463">
        <ele>980</ele>
        <time>2021-06-19T10:09:38Z</time>
      </trkpt>
      <trkpt lat="42.99783" lon="0.18457">
        <ele>978</ele>
        <time>2021-06-19T10:09:51Z</time>
      </trkpt>
      <trkpt lat="42.99779" lon="0.18449">
        <ele>977</ele>
        <time>2021-06-19T10:10:05Z</time>
      </trkpt>
      <trkpt lat="42.99773" lon="0.18447">
        <ele>978</ele>
        <time>2021-06-19T10:10:11Z</time>
      </trkpt>
      <trkpt lat="42.99765" lon="0.1844">
        <ele>978</ele>
        <time>2021-06-19T10:10:30Z</time>
      </trkpt>
      <trkpt lat="42.99756" lon="0.18434">
        <ele>980</ele>
        <time>2021-06-19T10:10:44Z</time>
      </trkpt>
      <trkpt lat="42.99748" lon="0.18426">
        <ele>983</ele>
        <time>2021-06-19T10:11:03Z</time>
      </trkpt>
      <trkpt lat="42.99738" lon="0.18424">
        <ele>989</ele>
        <time>2021-06-19T10:11:16Z</time>
      </trkpt>
      <trkpt lat="42.99733" lon="0.18416">
        <ele>990</ele>
        <time>2021-06-19T10:11:33Z</time>
      </trkpt>
      <trkpt lat="42.9973" lon="0.18412">
        <ele>990</ele>
        <time>2021-06-19T10:11:41Z</time>
      </trkpt>
      <trkpt lat="42.99726" lon="0.18408">
        <ele>989</ele>
        <time>2021-06-19T10:11:47Z</time>
      </trkpt>
      <trkpt lat="42.99722" lon="0.18405">
        <ele>989</ele>
        <time>2021-06-19T10:11:55Z</time>
      </trkpt>
      <trkpt lat="42.99719" lon="0.184">
        <ele>988</ele>
        <time>2021-06-19T10:12:05Z</time>
      </trkpt>
      <trkpt lat="42.99714" lon="0.18396">
        <ele>988</ele>
        <time>2021-06-19T10:12:20Z</time>
      </trkpt>
      <trkpt lat="42.99712" lon="0.1839">
        <ele>990</ele>
        <time>2021-06-19T10:12:32Z</time>
      </trkpt>
      <trkpt lat="42.99711" lon="0.18382">
        <ele>993</ele>
        <time>2021-06-19T10:13:01Z</time>
      </trkpt>
      <trkpt lat="42.99705" lon="0.18371">
        <ele>996</ele>
        <time>2021-06-19T10:13:13Z</time>
      </trkpt>
      <trkpt lat="42.99699" lon="0.1836">
        <ele>998</ele>
        <time>2021-06-19T10:13:25Z</time>
      </trkpt>
      <trkpt lat="42.99697" lon="0.18355">
        <ele>1002</ele>
        <time>2021-06-19T10:13:33Z</time>
      </trkpt>
      <trkpt lat="42.99694" lon="0.18351">
        <ele>1003</ele>
        <time>2021-06-19T10:13:40Z</time>
      </trkpt>
      <trkpt lat="42.99688" lon="0.18342">
        <ele>1005</ele>
        <time>2021-06-19T10:13:53Z</time>
      </trkpt>
      <trkpt lat="42.99685" lon="0.18339">
        <ele>1006</ele>
        <time>2021-06-19T10:14:02Z</time>
      </trkpt>
      <trkpt lat="42.99685" lon="0.18333">
        <ele>1006</ele>
        <time>2021-06-19T10:14:16Z</time>
      </trkpt>
      <trkpt lat="42.99684" lon="0.18326">
        <ele>1007</ele>
        <time>2021-06-19T10:14:27Z</time>
      </trkpt>
      <trkpt lat="42.99677" lon="0.18317">
        <ele>1008</ele>
        <time>2021-06-19T10:14:41Z</time>
      </trkpt>
      <trkpt lat="42.99675" lon="0.18312">
        <ele>1008</ele>
        <time>2021-06-19T10:14:47Z</time>
      </trkpt>
      <trkpt lat="42.99673" lon="0.18307">
        <ele>1008</ele>
        <time>2021-06-19T10:14:52Z</time>
      </trkpt>
      <trkpt lat="42.9967" lon="0.18303">
        <ele>1009</ele>
        <time>2021-06-19T10:15:36Z</time>
      </trkpt>
      <trkpt lat="42.99666" lon="0.18299">
        <ele>1010</ele>
        <time>2021-06-19T10:16:17Z</time>
      </trkpt>
      <trkpt lat="42.99664" lon="0.18295">
        <ele>1009</ele>
        <time>2021-06-19T10:16:30Z</time>
      </trkpt>
      <trkpt lat="42.99663" lon="0.1829">
        <ele>1010</ele>
        <time>2021-06-19T10:16:35Z</time>
      </trkpt>
      <trkpt lat="42.99663" lon="0.18285">
        <ele>1012</ele>
        <time>2021-06-19T10:16:42Z</time>
      </trkpt>
      <trkpt lat="42.99665" lon="0.1828">
        <ele>1012</ele>
        <time>2021-06-19T10:16:49Z</time>
      </trkpt>
      <trkpt lat="42.99664" lon="0.18274">
        <ele>1011</ele>
        <time>2021-06-19T10:16:56Z</time>
      </trkpt>
      <trkpt lat="42.99659" lon="0.18271">
        <ele>1011</ele>
        <time>2021-06-19T10:17:10Z</time>
      </trkpt>
      <trkpt lat="42.99659" lon="0.18266">
        <ele>1014</ele>
        <time>2021-06-19T10:18:04Z</time>
      </trkpt>
      <trkpt lat="42.99659" lon="0.18261">
        <ele>1014</ele>
        <time>2021-06-19T10:18:12Z</time>
      </trkpt>
      <trkpt lat="42.99657" lon="0.18257">
        <ele>1016</ele>
        <time>2021-06-19T10:18:19Z</time>
      </trkpt>
      <trkpt lat="42.99658" lon="0.18251">
        <ele>1018</ele>
        <time>2021-06-19T10:18:50Z</time>
      </trkpt>
      <trkpt lat="42.99655" lon="0.18248">
        <ele>1019</ele>
        <time>2021-06-19T10:18:56Z</time>
      </trkpt>
      <trkpt lat="42.99652" lon="0.18245">
        <ele>1019</ele>
        <time>2021-06-19T10:19:13Z</time>
      </trkpt>
      <trkpt lat="42.99653" lon="0.1824">
        <ele>1017</ele>
        <time>2021-06-19T10:19:46Z</time>
      </trkpt>
      <trkpt lat="42.99657" lon="0.18238">
        <ele>1018</ele>
        <time>2021-06-19T10:22:44Z</time>
      </trkpt>
      <trkpt lat="42.99658" lon="0.18244">
        <ele>1017</ele>
        <time>2021-06-19T10:27:05Z</time>
      </trkpt>
      <trkpt lat="42.99653" lon="0.18232">
        <ele>1017</ele>
        <time>2021-06-19T10:27:46Z</time>
      </trkpt>
      <trkpt lat="42.99645" lon="0.18226">
        <ele>1017</ele>
        <time>2021-06-19T10:28:04Z</time>
      </trkpt>
      <trkpt lat="42.99642" lon="0.18223">
        <ele>1023</ele>
        <time>2021-06-19T10:28:17Z</time>
      </trkpt>
      <trkpt lat="42.99639" lon="0.18226">
        <ele>1024</ele>
        <time>2021-06-19T10:29:30Z</time>
      </trkpt>
      <trkpt lat="42.99636" lon="0.18222">
        <ele>1028</ele>
        <time>2021-06-19T10:30:32Z</time>
      </trkpt>
      <trkpt lat="42.99633" lon="0.1822">
        <ele>1030</ele>
        <time>2021-06-19T10:30:43Z</time>
      </trkpt>
      <trkpt lat="42.9963" lon="0.18222">
        <ele>1030</ele>
        <time>2021-06-19T10:30:53Z</time>
      </trkpt>
      <trkpt lat="42.99626" lon="0.18221">
        <ele>1030</ele>
        <time>2021-06-19T10:30:58Z</time>
      </trkpt>
      <trkpt lat="42.99624" lon="0.18218">
        <ele>1031</ele>
        <time>2021-06-19T10:31:29Z</time>
      </trkpt>
      <trkpt lat="42.9962" lon="0.18208">
        <ele>1032</ele>
        <time>2021-06-19T10:32:01Z</time>
      </trkpt>
      <trkpt lat="42.99618" lon="0.18203">
        <ele>1034</ele>
        <time>2021-06-19T10:32:08Z</time>
      </trkpt>
      <trkpt lat="42.99617" lon="0.18198">
        <ele>1035</ele>
        <time>2021-06-19T10:32:13Z</time>
      </trkpt>
      <trkpt lat="42.99617" lon="0.18193">
        <ele>1035</ele>
        <time>2021-06-19T10:32:21Z</time>
      </trkpt>
      <trkpt lat="42.99612" lon="0.18182">
        <ele>1036</ele>
        <time>2021-06-19T10:32:35Z</time>
      </trkpt>
      <trkpt lat="42.99613" lon="0.18169">
        <ele>1041</ele>
        <time>2021-06-19T10:32:48Z</time>
      </trkpt>
      <trkpt lat="42.99619" lon="0.18158">
        <ele>1040</ele>
        <time>2021-06-19T10:33:08Z</time>
      </trkpt>
      <trkpt lat="42.99621" lon="0.18156">
        <ele>1050</ele>
        <time>2021-06-19T10:34:46Z</time>
      </trkpt>
      <trkpt lat="42.99624" lon="0.18152">
        <ele>1052</ele>
        <time>2021-06-19T10:34:50Z</time>
      </trkpt>
      <trkpt lat="42.99627" lon="0.18149">
        <ele>1054</ele>
        <time>2021-06-19T10:35:09Z</time>
      </trkpt>
      <trkpt lat="42.99627" lon="0.18151">
        <ele>1052</ele>
        <time>2021-06-19T10:37:01Z</time>
      </trkpt>
      <trkpt lat="42.99627" lon="0.18146">
        <ele>1051</ele>
        <time>2021-06-19T10:49:42Z</time>
      </trkpt>
      <trkpt lat="42.99627" lon="0.1815">
        <ele>1047</ele>
        <time>2021-06-19T10:50:16Z</time>
      </trkpt>
      <trkpt lat="42.99626" lon="0.18149">
        <ele>1051</ele>
        <time>2021-06-19T11:02:01Z</time>
      </trkpt>
      <trkpt lat="42.99629" lon="0.18151">
        <ele>1051</ele>
        <time>2021-06-19T11:05:08Z</time>
      </trkpt>
      <trkpt lat="42.9963" lon="0.18145">
        <ele>1051</ele>
        <time>2021-06-19T11:07:17Z</time>
      </trkpt>
      <trkpt lat="42.99625" lon="0.1814">
        <ele>1058</ele>
        <time>2021-06-19T11:12:20Z</time>
      </trkpt>
      <trkpt lat="42.99626" lon="0.18146">
        <ele>1057</ele>
        <time>2021-06-19T11:12:32Z</time>
      </trkpt>
      <trkpt lat="42.99629" lon="0.1815">
        <ele>1048</ele>
        <time>2021-06-19T11:13:38Z</time>
      </trkpt>
      <trkpt lat="42.99631" lon="0.18145">
        <ele>1049</ele>
        <time>2021-06-19T11:13:58Z</time>
      </trkpt>
      <trkpt lat="42.99625" lon="0.18135">
        <ele>1048</ele>
        <time>2021-06-19T11:14:09Z</time>
      </trkpt>
      <trkpt lat="42.99623" lon="0.18124">
        <ele>1048</ele>
        <time>2021-06-19T11:14:21Z</time>
      </trkpt>
      <trkpt lat="42.99622" lon="0.18119">
        <ele>1050</ele>
        <time>2021-06-19T11:14:38Z</time>
      </trkpt>
      <trkpt lat="42.99621" lon="0.18115">
        <ele>1053</ele>
        <time>2021-06-19T11:14:43Z</time>
      </trkpt>
      <trkpt lat="42.99619" lon="0.18111">
        <ele>1054</ele>
        <time>2021-06-19T11:14:50Z</time>
      </trkpt>
      <trkpt lat="42.99616" lon="0.18108">
        <ele>1054</ele>
        <time>2021-06-19T11:14:56Z</time>
      </trkpt>
      <trkpt lat="42.99615" lon="0.18102">
        <ele>1055</ele>
        <time>2021-06-19T11:15:05Z</time>
      </trkpt>
      <trkpt lat="42.99612" lon="0.18097">
        <ele>1054</ele>
        <time>2021-06-19T11:15:10Z</time>
      </trkpt>
      <trkpt lat="42.99609" lon="0.18094">
        <ele>1053</ele>
        <time>2021-06-19T11:15:16Z</time>
      </trkpt>
      <trkpt lat="42.99608" lon="0.18088">
        <ele>1053</ele>
        <time>2021-06-19T11:15:22Z</time>
      </trkpt>
      <trkpt lat="42.99602" lon="0.18071">
        <ele>1056</ele>
        <time>2021-06-19T11:15:39Z</time>
      </trkpt>
      <trkpt lat="42.99599" lon="0.18067">
        <ele>1056</ele>
        <time>2021-06-19T11:15:45Z</time>
      </trkpt>
      <trkpt lat="42.99595" lon="0.18058">
        <ele>1055</ele>
        <time>2021-06-19T11:15:56Z</time>
      </trkpt>
      <trkpt lat="42.99589" lon="0.18048">
        <ele>1055</ele>
        <time>2021-06-19T11:16:08Z</time>
      </trkpt>
      <trkpt lat="42.99587" lon="0.18044">
        <ele>1057</ele>
        <time>2021-06-19T11:16:12Z</time>
      </trkpt>
      <trkpt lat="42.99586" lon="0.18038">
        <ele>1059</ele>
        <time>2021-06-19T11:16:19Z</time>
      </trkpt>
      <trkpt lat="42.9958" lon="0.18028">
        <ele>1062</ele>
        <time>2021-06-19T11:16:31Z</time>
      </trkpt>
      <trkpt lat="42.99573" lon="0.18013">
        <ele>1068</ele>
        <time>2021-06-19T11:16:44Z</time>
      </trkpt>
      <trkpt lat="42.99569" lon="0.18009">
        <ele>1068</ele>
        <time>2021-06-19T11:16:48Z</time>
      </trkpt>
      <trkpt lat="42.99562" lon="0.18">
        <ele>1065</ele>
        <time>2021-06-19T11:17:07Z</time>
      </trkpt>
      <trkpt lat="42.9956" lon="0.17995">
        <ele>1067</ele>
        <time>2021-06-19T11:17:14Z</time>
      </trkpt>
      <trkpt lat="42.99558" lon="0.17989">
        <ele>1068</ele>
        <time>2021-06-19T11:17:21Z</time>
      </trkpt>
      <trkpt lat="42.99555" lon="0.17985">
        <ele>1071</ele>
        <time>2021-06-19T11:17:30Z</time>
      </trkpt>
      <trkpt lat="42.9955" lon="0.17981">
        <ele>1071</ele>
        <time>2021-06-19T11:17:37Z</time>
      </trkpt>
      <trkpt lat="42.99547" lon="0.17977">
        <ele>1071</ele>
        <time>2021-06-19T11:17:48Z</time>
      </trkpt>
      <trkpt lat="42.99545" lon="0.17971">
        <ele>1071</ele>
        <time>2021-06-19T11:17:56Z</time>
      </trkpt>
      <trkpt lat="42.99542" lon="0.17966">
        <ele>1066</ele>
        <time>2021-06-19T11:18:03Z</time>
      </trkpt>
      <trkpt lat="42.99539" lon="0.1796">
        <ele>1066</ele>
        <time>2021-06-19T11:18:37Z</time>
      </trkpt>
      <trkpt lat="42.99537" lon="0.17955">
        <ele>1067</ele>
        <time>2021-06-19T11:18:42Z</time>
      </trkpt>
      <trkpt lat="42.99537" lon="0.17949">
        <ele>1067</ele>
        <time>2021-06-19T11:18:47Z</time>
      </trkpt>
      <trkpt lat="42.99537" lon="0.17944">
        <ele>1069</ele>
        <time>2021-06-19T11:18:52Z</time>
      </trkpt>
      <trkpt lat="42.99533" lon="0.17942">
        <ele>1070</ele>
        <time>2021-06-19T11:18:58Z</time>
      </trkpt>
      <trkpt lat="42.99529" lon="0.17939">
        <ele>1072</ele>
        <time>2021-06-19T11:19:03Z</time>
      </trkpt>
      <trkpt lat="42.99528" lon="0.17935">
        <ele>1074</ele>
        <time>2021-06-19T11:19:09Z</time>
      </trkpt>
      <trkpt lat="42.99524" lon="0.17936">
        <ele>1076</ele>
        <time>2021-06-19T11:19:40Z</time>
      </trkpt>
      <trkpt lat="42.99519" lon="0.17939">
        <ele>1076</ele>
        <time>2021-06-19T11:19:47Z</time>
      </trkpt>
      <trkpt lat="42.99514" lon="0.17941">
        <ele>1077</ele>
        <time>2021-06-19T11:19:51Z</time>
      </trkpt>
      <trkpt lat="42.99511" lon="0.17945">
        <ele>1077</ele>
        <time>2021-06-19T11:19:55Z</time>
      </trkpt>
      <trkpt lat="42.99505" lon="0.17954">
        <ele>1082</ele>
        <time>2021-06-19T11:20:06Z</time>
      </trkpt>
      <trkpt lat="42.99504" lon="0.17961">
        <ele>1082</ele>
        <time>2021-06-19T11:20:10Z</time>
      </trkpt>
      <trkpt lat="42.99504" lon="0.17966">
        <ele>1081</ele>
        <time>2021-06-19T11:20:14Z</time>
      </trkpt>
      <trkpt lat="42.99504" lon="0.17972">
        <ele>1081</ele>
        <time>2021-06-19T11:20:18Z</time>
      </trkpt>
      <trkpt lat="42.99506" lon="0.17976">
        <ele>1081</ele>
        <time>2021-06-19T11:20:21Z</time>
      </trkpt>
      <trkpt lat="42.99506" lon="0.17982">
        <ele>1082</ele>
        <time>2021-06-19T11:20:24Z</time>
      </trkpt>
      <trkpt lat="42.99507" lon="0.17988">
        <ele>1083</ele>
        <time>2021-06-19T11:20:28Z</time>
      </trkpt>
      <trkpt lat="42.99504" lon="0.17998">
        <ele>1084</ele>
        <time>2021-06-19T11:20:38Z</time>
      </trkpt>
      <trkpt lat="42.99507" lon="0.17998">
        <ele>1085</ele>
        <time>2021-06-19T11:20:46Z</time>
      </trkpt>
      <trkpt lat="42.99506" lon="0.18004">
        <ele>1085</ele>
        <time>2021-06-19T11:20:55Z</time>
      </trkpt>
      <trkpt lat="42.99503" lon="0.18007">
        <ele>1084</ele>
        <time>2021-06-19T11:21:00Z</time>
      </trkpt>
      <trkpt lat="42.995" lon="0.18011">
        <ele>1085</ele>
        <time>2021-06-19T11:21:22Z</time>
      </trkpt>
      <trkpt lat="42.99497" lon="0.18014">
        <ele>1085</ele>
        <time>2021-06-19T11:21:26Z</time>
      </trkpt>
      <trkpt lat="42.99493" lon="0.18016">
        <ele>1084</ele>
        <time>2021-06-19T11:21:32Z</time>
      </trkpt>
      <trkpt lat="42.99492" lon="0.1802">
        <ele>1084</ele>
        <time>2021-06-19T11:21:38Z</time>
      </trkpt>
      <trkpt lat="42.99493" lon="0.18017">
        <ele>1086</ele>
        <time>2021-06-19T11:24:07Z</time>
      </trkpt>
      <trkpt lat="42.99491" lon="0.18014">
        <ele>1087</ele>
        <time>2021-06-19T11:25:58Z</time>
      </trkpt>
      <trkpt lat="42.99491" lon="0.18014">
        <ele>1089</ele>
        <time>2021-06-19T11:26:47Z</time>
      </trkpt>
      <trkpt lat="42.99495" lon="0.18017">
        <ele>1088</ele>
        <time>2021-06-19T11:26:50Z</time>
      </trkpt>
      <trkpt lat="42.99498" lon="0.18016">
        <ele>1088</ele>
        <time>2021-06-19T11:26:54Z</time>
      </trkpt>
      <trkpt lat="42.99509" lon="0.18002">
        <ele>1089</ele>
        <time>2021-06-19T11:27:10Z</time>
      </trkpt>
      <trkpt lat="42.99512" lon="0.17999">
        <ele>1086</ele>
        <time>2021-06-19T11:27:16Z</time>
      </trkpt>
      <trkpt lat="42.99516" lon="0.17995">
        <ele>1086</ele>
        <time>2021-06-19T11:27:21Z</time>
      </trkpt>
      <trkpt lat="42.99515" lon="0.17988">
        <ele>1086</ele>
        <time>2021-06-19T11:27:24Z</time>
      </trkpt>
      <trkpt lat="42.9951" lon="0.17987">
        <ele>1086</ele>
        <time>2021-06-19T11:27:28Z</time>
      </trkpt>
      <trkpt lat="42.99509" lon="0.17981">
        <ele>1083</ele>
        <time>2021-06-19T11:27:46Z</time>
      </trkpt>
      <trkpt lat="42.99511" lon="0.17966">
        <ele>1083</ele>
        <time>2021-06-19T11:27:58Z</time>
      </trkpt>
      <trkpt lat="42.99509" lon="0.17963">
        <ele>1081</ele>
        <time>2021-06-19T11:28:04Z</time>
      </trkpt>
      <trkpt lat="42.99507" lon="0.17958">
        <ele>1081</ele>
        <time>2021-06-19T11:28:10Z</time>
      </trkpt>
      <trkpt lat="42.99507" lon="0.17953">
        <ele>1081</ele>
        <time>2021-06-19T11:28:15Z</time>
      </trkpt>
      <trkpt lat="42.99508" lon="0.17948">
        <ele>1083</ele>
        <time>2021-06-19T11:28:20Z</time>
      </trkpt>
      <trkpt lat="42.99509" lon="0.17943">
        <ele>1081</ele>
        <time>2021-06-19T11:28:25Z</time>
      </trkpt>
      <trkpt lat="42.99507" lon="0.17932">
        <ele>1082</ele>
        <time>2021-06-19T11:28:37Z</time>
      </trkpt>
      <trkpt lat="42.99505" lon="0.17926">
        <ele>1084</ele>
        <time>2021-06-19T11:28:43Z</time>
      </trkpt>
      <trkpt lat="42.99503" lon="0.17909">
        <ele>1087</ele>
        <time>2021-06-19T11:29:03Z</time>
      </trkpt>
      <trkpt lat="42.995" lon="0.17905">
        <ele>1087</ele>
        <time>2021-06-19T11:29:21Z</time>
      </trkpt>
      <trkpt lat="42.99499" lon="0.179">
        <ele>1087</ele>
        <time>2021-06-19T11:29:30Z</time>
      </trkpt>
      <trkpt lat="42.995" lon="0.17889">
        <ele>1091</ele>
        <time>2021-06-19T11:29:42Z</time>
      </trkpt>
      <trkpt lat="42.99499" lon="0.17883">
        <ele>1093</ele>
        <time>2021-06-19T11:29:48Z</time>
      </trkpt>
      <trkpt lat="42.99498" lon="0.17876">
        <ele>1094</ele>
        <time>2021-06-19T11:29:56Z</time>
      </trkpt>
      <trkpt lat="42.99498" lon="0.1787">
        <ele>1097</ele>
        <time>2021-06-19T11:30:01Z</time>
      </trkpt>
      <trkpt lat="42.99496" lon="0.17864">
        <ele>1098</ele>
        <time>2021-06-19T11:30:06Z</time>
      </trkpt>
      <trkpt lat="42.99495" lon="0.17859">
        <ele>1089</ele>
        <time>2021-06-19T11:30:28Z</time>
      </trkpt>
      <trkpt lat="42.99492" lon="0.17856">
        <ele>1095</ele>
        <time>2021-06-19T11:30:40Z</time>
      </trkpt>
      <trkpt lat="42.99487" lon="0.17847">
        <ele>1102</ele>
        <time>2021-06-19T11:30:50Z</time>
      </trkpt>
      <trkpt lat="42.99484" lon="0.17844">
        <ele>1103</ele>
        <time>2021-06-19T11:30:54Z</time>
      </trkpt>
      <trkpt lat="42.99481" lon="0.17839">
        <ele>1103</ele>
        <time>2021-06-19T11:31:03Z</time>
      </trkpt>
      <trkpt lat="42.99478" lon="0.17834">
        <ele>1104</ele>
        <time>2021-06-19T11:31:09Z</time>
      </trkpt>
      <trkpt lat="42.99476" lon="0.17829">
        <ele>1104</ele>
        <time>2021-06-19T11:31:15Z</time>
      </trkpt>
      <trkpt lat="42.99475" lon="0.17824">
        <ele>1105</ele>
        <time>2021-06-19T11:31:22Z</time>
      </trkpt>
      <trkpt lat="42.99472" lon="0.17822">
        <ele>1105</ele>
        <time>2021-06-19T11:31:34Z</time>
      </trkpt>
      <trkpt lat="42.99467" lon="0.17824">
        <ele>1105</ele>
        <time>2021-06-19T11:31:40Z</time>
      </trkpt>
      <trkpt lat="42.99463" lon="0.17825">
        <ele>1106</ele>
        <time>2021-06-19T11:31:45Z</time>
      </trkpt>
      <trkpt lat="42.99459" lon="0.17827">
        <ele>1105</ele>
        <time>2021-06-19T11:31:56Z</time>
      </trkpt>
      <trkpt lat="42.99461" lon="0.17832">
        <ele>1105</ele>
        <time>2021-06-19T11:32:24Z</time>
      </trkpt>
      <trkpt lat="42.99463" lon="0.17836">
        <ele>1105</ele>
        <time>2021-06-19T11:32:36Z</time>
      </trkpt>
      <trkpt lat="42.99461" lon="0.1784">
        <ele>1107</ele>
        <time>2021-06-19T11:32:50Z</time>
      </trkpt>
      <trkpt lat="42.99457" lon="0.17843">
        <ele>1109</ele>
        <time>2021-06-19T11:32:58Z</time>
      </trkpt>
      <trkpt lat="42.99448" lon="0.17844">
        <ele>1114</ele>
        <time>2021-06-19T11:34:36Z</time>
      </trkpt>
      <trkpt lat="42.99445" lon="0.17856">
        <ele>1115</ele>
        <time>2021-06-19T11:35:03Z</time>
      </trkpt>
      <trkpt lat="42.99447" lon="0.17868">
        <ele>1116</ele>
        <time>2021-06-19T11:35:23Z</time>
      </trkpt>
      <trkpt lat="42.99444" lon="0.17865">
        <ele>1117</ele>
        <time>2021-06-19T11:36:10Z</time>
      </trkpt>
      <trkpt lat="42.99444" lon="0.1786">
        <ele>1116</ele>
        <time>2021-06-19T11:36:18Z</time>
      </trkpt>
      <trkpt lat="42.99441" lon="0.17856">
        <ele>1116</ele>
        <time>2021-06-19T11:36:24Z</time>
      </trkpt>
      <trkpt lat="42.99434" lon="0.17862">
        <ele>1117</ele>
        <time>2021-06-19T11:36:34Z</time>
      </trkpt>
      <trkpt lat="42.99431" lon="0.17864">
        <ele>1117</ele>
        <time>2021-06-19T11:36:38Z</time>
      </trkpt>
      <trkpt lat="42.99428" lon="0.17865">
        <ele>1117</ele>
        <time>2021-06-19T11:36:42Z</time>
      </trkpt>
      <trkpt lat="42.99424" lon="0.17869">
        <ele>1116</ele>
        <time>2021-06-19T11:36:45Z</time>
      </trkpt>
      <trkpt lat="42.99424" lon="0.17875">
        <ele>1116</ele>
        <time>2021-06-19T11:36:48Z</time>
      </trkpt>
      <trkpt lat="42.99424" lon="0.17886">
        <ele>1116</ele>
        <time>2021-06-19T11:36:56Z</time>
      </trkpt>
      <trkpt lat="42.99424" lon="0.17896">
        <ele>1116</ele>
        <time>2021-06-19T11:37:13Z</time>
      </trkpt>
      <trkpt lat="42.99426" lon="0.17901">
        <ele>1115</ele>
        <time>2021-06-19T11:37:42Z</time>
      </trkpt>
      <trkpt lat="42.99425" lon="0.17905">
        <ele>1113</ele>
        <time>2021-06-19T11:37:50Z</time>
      </trkpt>
      <trkpt lat="42.99426" lon="0.17909">
        <ele>1109</ele>
        <time>2021-06-19T11:37:56Z</time>
      </trkpt>
      <trkpt lat="42.99426" lon="0.17914">
        <ele>1108</ele>
        <time>2021-06-19T11:38:01Z</time>
      </trkpt>
      <trkpt lat="42.99428" lon="0.17915">
        <ele>1109</ele>
        <time>2021-06-19T11:38:37Z</time>
      </trkpt>
      <trkpt lat="42.99429" lon="0.1791">
        <ele>1109</ele>
        <time>2021-06-19T11:38:42Z</time>
      </trkpt>
      <trkpt lat="42.99432" lon="0.17906">
        <ele>1106</ele>
        <time>2021-06-19T11:38:53Z</time>
      </trkpt>
      <trkpt lat="42.9943" lon="0.179">
        <ele>1105</ele>
        <time>2021-06-19T11:39:06Z</time>
      </trkpt>
      <trkpt lat="42.99429" lon="0.17895">
        <ele>1108</ele>
        <time>2021-06-19T11:39:10Z</time>
      </trkpt>
      <trkpt lat="42.99431" lon="0.17886">
        <ele>1111</ele>
        <time>2021-06-19T11:39:17Z</time>
      </trkpt>
      <trkpt lat="42.99431" lon="0.17881">
        <ele>1112</ele>
        <time>2021-06-19T11:39:21Z</time>
      </trkpt>
      <trkpt lat="42.99431" lon="0.17875">
        <ele>1114</ele>
        <time>2021-06-19T11:39:25Z</time>
      </trkpt>
      <trkpt lat="42.9943" lon="0.1787">
        <ele>1116</ele>
        <time>2021-06-19T11:39:29Z</time>
      </trkpt>
      <trkpt lat="42.99428" lon="0.17862">
        <ele>1116</ele>
        <time>2021-06-19T11:40:16Z</time>
      </trkpt>
      <trkpt lat="42.99428" lon="0.17857">
        <ele>1117</ele>
        <time>2021-06-19T11:40:42Z</time>
      </trkpt>
      <trkpt lat="42.99427" lon="0.17852">
        <ele>1120</ele>
        <time>2021-06-19T11:40:46Z</time>
      </trkpt>
      <trkpt lat="42.99424" lon="0.17842">
        <ele>1122</ele>
        <time>2021-06-19T11:40:57Z</time>
      </trkpt>
      <trkpt lat="42.99423" lon="0.17838">
        <ele>1122</ele>
        <time>2021-06-19T11:41:01Z</time>
      </trkpt>
      <trkpt lat="42.99421" lon="0.17833">
        <ele>1123</ele>
        <time>2021-06-19T11:41:06Z</time>
      </trkpt>
      <trkpt lat="42.99415" lon="0.17821">
        <ele>1123</ele>
        <time>2021-06-19T11:41:19Z</time>
      </trkpt>
      <trkpt lat="42.99411" lon="0.17813">
        <ele>1123</ele>
        <time>2021-06-19T11:41:27Z</time>
      </trkpt>
      <trkpt lat="42.99411" lon="0.17807">
        <ele>1121</ele>
        <time>2021-06-19T11:41:31Z</time>
      </trkpt>
      <trkpt lat="42.99409" lon="0.17802">
        <ele>1121</ele>
        <time>2021-06-19T11:41:35Z</time>
      </trkpt>
      <trkpt lat="42.99408" lon="0.17798">
        <ele>1122</ele>
        <time>2021-06-19T11:41:41Z</time>
      </trkpt>
      <trkpt lat="42.99406" lon="0.17793">
        <ele>1124</ele>
        <time>2021-06-19T11:42:01Z</time>
      </trkpt>
      <trkpt lat="42.99407" lon="0.17789">
        <ele>1125</ele>
        <time>2021-06-19T11:42:06Z</time>
      </trkpt>
      <trkpt lat="42.99404" lon="0.17779">
        <ele>1125</ele>
        <time>2021-06-19T11:42:14Z</time>
      </trkpt>
      <trkpt lat="42.994" lon="0.17778">
        <ele>1127</ele>
        <time>2021-06-19T11:42:27Z</time>
      </trkpt>
      <trkpt lat="42.99398" lon="0.17782">
        <ele>1127</ele>
        <time>2021-06-19T11:43:58Z</time>
      </trkpt>
      <trkpt lat="42.99394" lon="0.17781">
        <ele>1129</ele>
        <time>2021-06-19T11:44:02Z</time>
      </trkpt>
      <trkpt lat="42.99383" lon="0.17769">
        <ele>1129</ele>
        <time>2021-06-19T11:44:22Z</time>
      </trkpt>
      <trkpt lat="42.99379" lon="0.17758">
        <ele>1129</ele>
        <time>2021-06-19T11:44:31Z</time>
      </trkpt>
      <trkpt lat="42.99376" lon="0.17754">
        <ele>1130</ele>
        <time>2021-06-19T11:44:35Z</time>
      </trkpt>
      <trkpt lat="42.99373" lon="0.17751">
        <ele>1131</ele>
        <time>2021-06-19T11:44:40Z</time>
      </trkpt>
      <trkpt lat="42.9937" lon="0.17747">
        <ele>1131</ele>
        <time>2021-06-19T11:44:44Z</time>
      </trkpt>
      <trkpt lat="42.99364" lon="0.17741">
        <ele>1133</ele>
        <time>2021-06-19T11:44:53Z</time>
      </trkpt>
      <trkpt lat="42.99359" lon="0.17734">
        <ele>1132</ele>
        <time>2021-06-19T11:45:01Z</time>
      </trkpt>
      <trkpt lat="42.99358" lon="0.17729">
        <ele>1132</ele>
        <time>2021-06-19T11:45:05Z</time>
      </trkpt>
      <trkpt lat="42.99349" lon="0.17708">
        <ele>1135</ele>
        <time>2021-06-19T11:45:25Z</time>
      </trkpt>
      <trkpt lat="42.99347" lon="0.17705">
        <ele>1135</ele>
        <time>2021-06-19T11:45:29Z</time>
      </trkpt>
      <trkpt lat="42.99345" lon="0.17701">
        <ele>1135</ele>
        <time>2021-06-19T11:45:34Z</time>
      </trkpt>
      <trkpt lat="42.99343" lon="0.17695">
        <ele>1135</ele>
        <time>2021-06-19T11:45:40Z</time>
      </trkpt>
      <trkpt lat="42.99334" lon="0.1768">
        <ele>1134</ele>
        <time>2021-06-19T11:45:58Z</time>
      </trkpt>
      <trkpt lat="42.9933" lon="0.17678">
        <ele>1130</ele>
        <time>2021-06-19T11:46:11Z</time>
      </trkpt>
      <trkpt lat="42.99328" lon="0.17674">
        <ele>1130</ele>
        <time>2021-06-19T11:46:15Z</time>
      </trkpt>
      <trkpt lat="42.99326" lon="0.17671">
        <ele>1134</ele>
        <time>2021-06-19T11:46:23Z</time>
      </trkpt>
      <trkpt lat="42.99323" lon="0.17669">
        <ele>1134</ele>
        <time>2021-06-19T11:46:31Z</time>
      </trkpt>
      <trkpt lat="42.9932" lon="0.17665">
        <ele>1135</ele>
        <time>2021-06-19T11:46:42Z</time>
      </trkpt>
      <trkpt lat="42.9932" lon="0.17661">
        <ele>1134</ele>
        <time>2021-06-19T11:46:52Z</time>
      </trkpt>
      <trkpt lat="42.99313" lon="0.17649">
        <ele>1135</ele>
        <time>2021-06-19T11:47:09Z</time>
      </trkpt>
      <trkpt lat="42.9931" lon="0.17646">
        <ele>1135</ele>
        <time>2021-06-19T11:47:17Z</time>
      </trkpt>
      <trkpt lat="42.99307" lon="0.17643">
        <ele>1136</ele>
        <time>2021-06-19T11:47:22Z</time>
      </trkpt>
      <trkpt lat="42.99303" lon="0.17644">
        <ele>1137</ele>
        <time>2021-06-19T11:47:43Z</time>
      </trkpt>
      <trkpt lat="42.99299" lon="0.17644">
        <ele>1139</ele>
        <time>2021-06-19T11:47:49Z</time>
      </trkpt>
      <trkpt lat="42.99296" lon="0.17642">
        <ele>1138</ele>
        <time>2021-06-19T11:47:55Z</time>
      </trkpt>
      <trkpt lat="42.99293" lon="0.1764">
        <ele>1137</ele>
        <time>2021-06-19T11:48:12Z</time>
      </trkpt>
      <trkpt lat="42.99291" lon="0.17636">
        <ele>1136</ele>
        <time>2021-06-19T11:48:17Z</time>
      </trkpt>
      <trkpt lat="42.99283" lon="0.17633">
        <ele>1137</ele>
        <time>2021-06-19T11:48:42Z</time>
      </trkpt>
      <trkpt lat="42.99281" lon="0.1763">
        <ele>1138</ele>
        <time>2021-06-19T11:48:46Z</time>
      </trkpt>
      <trkpt lat="42.99274" lon="0.17626">
        <ele>1135</ele>
        <time>2021-06-19T11:48:53Z</time>
      </trkpt>
      <trkpt lat="42.99257" lon="0.17615">
        <ele>1135</ele>
        <time>2021-06-19T11:49:17Z</time>
      </trkpt>
      <trkpt lat="42.99247" lon="0.1761">
        <ele>1138</ele>
        <time>2021-06-19T11:49:32Z</time>
      </trkpt>
      <trkpt lat="42.99243" lon="0.17608">
        <ele>1137</ele>
        <time>2021-06-19T11:49:37Z</time>
      </trkpt>
      <trkpt lat="42.9924" lon="0.17605">
        <ele>1134</ele>
        <time>2021-06-19T11:49:44Z</time>
      </trkpt>
      <trkpt lat="42.99235" lon="0.176">
        <ele>1136</ele>
        <time>2021-06-19T11:49:54Z</time>
      </trkpt>
      <trkpt lat="42.99207" lon="0.17581">
        <ele>1136</ele>
        <time>2021-06-19T11:50:27Z</time>
      </trkpt>
      <trkpt lat="42.99203" lon="0.17581">
        <ele>1137</ele>
        <time>2021-06-19T11:50:31Z</time>
      </trkpt>
      <trkpt lat="42.99199" lon="0.1758">
        <ele>1137</ele>
        <time>2021-06-19T11:50:36Z</time>
      </trkpt>
      <trkpt lat="42.99196" lon="0.17578">
        <ele>1136</ele>
        <time>2021-06-19T11:50:40Z</time>
      </trkpt>
      <trkpt lat="42.99192" lon="0.17576">
        <ele>1135</ele>
        <time>2021-06-19T11:50:45Z</time>
      </trkpt>
      <trkpt lat="42.99189" lon="0.17574">
        <ele>1136</ele>
        <time>2021-06-19T11:50:50Z</time>
      </trkpt>
      <trkpt lat="42.99187" lon="0.17571">
        <ele>1135</ele>
        <time>2021-06-19T11:50:56Z</time>
      </trkpt>
      <trkpt lat="42.99183" lon="0.17569">
        <ele>1134</ele>
        <time>2021-06-19T11:51:02Z</time>
      </trkpt>
      <trkpt lat="42.9918" lon="0.17566">
        <ele>1135</ele>
        <time>2021-06-19T11:51:29Z</time>
      </trkpt>
      <trkpt lat="42.99177" lon="0.17564">
        <ele>1138</ele>
        <time>2021-06-19T11:51:34Z</time>
      </trkpt>
      <trkpt lat="42.9917" lon="0.17559">
        <ele>1140</ele>
        <time>2021-06-19T11:51:43Z</time>
      </trkpt>
      <trkpt lat="42.99167" lon="0.17555">
        <ele>1140</ele>
        <time>2021-06-19T11:51:47Z</time>
      </trkpt>
      <trkpt lat="42.99166" lon="0.17552">
        <ele>1141</ele>
        <time>2021-06-19T11:51:51Z</time>
      </trkpt>
      <trkpt lat="42.99159" lon="0.17545">
        <ele>1143</ele>
        <time>2021-06-19T11:52:04Z</time>
      </trkpt>
      <trkpt lat="42.99153" lon="0.17536">
        <ele>1145</ele>
        <time>2021-06-19T11:52:21Z</time>
      </trkpt>
      <trkpt lat="42.9915" lon="0.17534">
        <ele>1147</ele>
        <time>2021-06-19T11:52:38Z</time>
      </trkpt>
      <trkpt lat="42.99148" lon="0.1753">
        <ele>1147</ele>
        <time>2021-06-19T11:52:48Z</time>
      </trkpt>
      <trkpt lat="42.99144" lon="0.17528">
        <ele>1146</ele>
        <time>2021-06-19T11:53:03Z</time>
      </trkpt>
      <trkpt lat="42.99143" lon="0.17524">
        <ele>1146</ele>
        <time>2021-06-19T11:53:28Z</time>
      </trkpt>
      <trkpt lat="42.9914" lon="0.17521">
        <ele>1149</ele>
        <time>2021-06-19T11:53:56Z</time>
      </trkpt>
      <trkpt lat="42.99139" lon="0.17517">
        <ele>1149</ele>
        <time>2021-06-19T11:55:26Z</time>
      </trkpt>
      <trkpt lat="42.9914" lon="0.17512">
        <ele>1152</ele>
        <time>2021-06-19T11:55:51Z</time>
      </trkpt>
      <trkpt lat="42.99137" lon="0.17503">
        <ele>1158</ele>
        <time>2021-06-19T11:56:22Z</time>
      </trkpt>
      <trkpt lat="42.99136" lon="0.17499">
        <ele>1160</ele>
        <time>2021-06-19T11:56:33Z</time>
      </trkpt>
      <trkpt lat="42.99134" lon="0.17494">
        <ele>1158</ele>
        <time>2021-06-19T11:56:41Z</time>
      </trkpt>
      <trkpt lat="42.99135" lon="0.17488">
        <ele>1159</ele>
        <time>2021-06-19T11:57:08Z</time>
      </trkpt>
      <trkpt lat="42.99134" lon="0.17483">
        <ele>1159</ele>
        <time>2021-06-19T11:57:20Z</time>
      </trkpt>
      <trkpt lat="42.99137" lon="0.1748">
        <ele>1157</ele>
        <time>2021-06-19T11:58:11Z</time>
      </trkpt>
      <trkpt lat="42.99144" lon="0.17479">
        <ele>1160</ele>
        <time>2021-06-19T11:58:19Z</time>
      </trkpt>
      <trkpt lat="42.99149" lon="0.17487">
        <ele>1162</ele>
        <time>2021-06-19T11:58:31Z</time>
      </trkpt>
      <trkpt lat="42.99152" lon="0.1749">
        <ele>1162</ele>
        <time>2021-06-19T11:58:51Z</time>
      </trkpt>
      <trkpt lat="42.99155" lon="0.17494">
        <ele>1163</ele>
        <time>2021-06-19T11:59:05Z</time>
      </trkpt>
      <trkpt lat="42.99158" lon="0.17496">
        <ele>1167</ele>
        <time>2021-06-19T11:59:48Z</time>
      </trkpt>
      <trkpt lat="42.9916" lon="0.17492">
        <ele>1167</ele>
        <time>2021-06-19T12:00:04Z</time>
      </trkpt>
      <trkpt lat="42.99164" lon="0.17493">
        <ele>1167</ele>
        <time>2021-06-19T12:00:12Z</time>
      </trkpt>
      <trkpt lat="42.99168" lon="0.17494">
        <ele>1170</ele>
        <time>2021-06-19T12:00:29Z</time>
      </trkpt>
      <trkpt lat="42.99176" lon="0.17498">
        <ele>1172</ele>
        <time>2021-06-19T12:00:44Z</time>
      </trkpt>
      <trkpt lat="42.99179" lon="0.17501">
        <ele>1167</ele>
        <time>2021-06-19T12:00:51Z</time>
      </trkpt>
      <trkpt lat="42.99183" lon="0.17502">
        <ele>1173</ele>
        <time>2021-06-19T12:01:02Z</time>
      </trkpt>
      <trkpt lat="42.99186" lon="0.17505">
        <ele>1174</ele>
        <time>2021-06-19T12:01:12Z</time>
      </trkpt>
      <trkpt lat="42.99194" lon="0.17505">
        <ele>1177</ele>
        <time>2021-06-19T12:01:32Z</time>
      </trkpt>
      <trkpt lat="42.99201" lon="0.17509">
        <ele>1179</ele>
        <time>2021-06-19T12:01:49Z</time>
      </trkpt>
      <trkpt lat="42.99205" lon="0.17509">
        <ele>1179</ele>
        <time>2021-06-19T12:01:56Z</time>
      </trkpt>
      <trkpt lat="42.99215" lon="0.17518">
        <ele>1177</ele>
        <time>2021-06-19T12:02:31Z</time>
      </trkpt>
      <trkpt lat="42.99218" lon="0.17521">
        <ele>1178</ele>
        <time>2021-06-19T12:02:35Z</time>
      </trkpt>
      <trkpt lat="42.99221" lon="0.17525">
        <ele>1178</ele>
        <time>2021-06-19T12:02:39Z</time>
      </trkpt>
      <trkpt lat="42.99223" lon="0.17528">
        <ele>1178</ele>
        <time>2021-06-19T12:02:42Z</time>
      </trkpt>
      <trkpt lat="42.99226" lon="0.17532">
        <ele>1179</ele>
        <time>2021-06-19T12:02:46Z</time>
      </trkpt>
      <trkpt lat="42.99229" lon="0.17536">
        <ele>1180</ele>
        <time>2021-06-19T12:02:50Z</time>
      </trkpt>
      <trkpt lat="42.99232" lon="0.17538">
        <ele>1181</ele>
        <time>2021-06-19T12:02:55Z</time>
      </trkpt>
      <trkpt lat="42.99236" lon="0.17538">
        <ele>1174</ele>
        <time>2021-06-19T12:02:59Z</time>
      </trkpt>
      <trkpt lat="42.99239" lon="0.17538">
        <ele>1172</ele>
        <time>2021-06-19T12:03:04Z</time>
      </trkpt>
      <trkpt lat="42.99243" lon="0.17541">
        <ele>1177</ele>
        <time>2021-06-19T12:03:20Z</time>
      </trkpt>
      <trkpt lat="42.99271" lon="0.17558">
        <ele>1179</ele>
        <time>2021-06-19T12:03:50Z</time>
      </trkpt>
      <trkpt lat="42.99279" lon="0.17561">
        <ele>1179</ele>
        <time>2021-06-19T12:04:00Z</time>
      </trkpt>
      <trkpt lat="42.99283" lon="0.17561">
        <ele>1177</ele>
        <time>2021-06-19T12:04:05Z</time>
      </trkpt>
      <trkpt lat="42.99286" lon="0.17559">
        <ele>1174</ele>
        <time>2021-06-19T12:06:09Z</time>
      </trkpt>
      <trkpt lat="42.9929" lon="0.17559">
        <ele>1172</ele>
        <time>2021-06-19T12:06:38Z</time>
      </trkpt>
      <trkpt lat="42.99294" lon="0.17559">
        <ele>1172</ele>
        <time>2021-06-19T12:06:45Z</time>
      </trkpt>
      <trkpt lat="42.99304" lon="0.17551">
        <ele>1170</ele>
        <time>2021-06-19T12:07:05Z</time>
      </trkpt>
      <trkpt lat="42.99307" lon="0.17548">
        <ele>1170</ele>
        <time>2021-06-19T12:07:08Z</time>
      </trkpt>
      <trkpt lat="42.99313" lon="0.17544">
        <ele>1169</ele>
        <time>2021-06-19T12:07:19Z</time>
      </trkpt>
      <trkpt lat="42.99317" lon="0.1754">
        <ele>1168</ele>
        <time>2021-06-19T12:07:25Z</time>
      </trkpt>
      <trkpt lat="42.99319" lon="0.17537">
        <ele>1165</ele>
        <time>2021-06-19T12:08:06Z</time>
      </trkpt>
      <trkpt lat="42.99322" lon="0.17533">
        <ele>1165</ele>
        <time>2021-06-19T12:08:10Z</time>
      </trkpt>
      <trkpt lat="42.99322" lon="0.17528">
        <ele>1167</ele>
        <time>2021-06-19T12:08:19Z</time>
      </trkpt>
      <trkpt lat="42.99325" lon="0.17509">
        <ele>1170</ele>
        <time>2021-06-19T12:08:57Z</time>
      </trkpt>
      <trkpt lat="42.99326" lon="0.17504">
        <ele>1171</ele>
        <time>2021-06-19T12:09:13Z</time>
      </trkpt>
      <trkpt lat="42.99322" lon="0.17481">
        <ele>1177</ele>
        <time>2021-06-19T12:09:51Z</time>
      </trkpt>
      <trkpt lat="42.99317" lon="0.17468">
        <ele>1181</ele>
        <time>2021-06-19T12:10:21Z</time>
      </trkpt>
      <trkpt lat="42.99315" lon="0.17463">
        <ele>1182</ele>
        <time>2021-06-19T12:10:28Z</time>
      </trkpt>
      <trkpt lat="42.99308" lon="0.17451">
        <ele>1183</ele>
        <time>2021-06-19T12:10:55Z</time>
      </trkpt>
      <trkpt lat="42.99306" lon="0.17442">
        <ele>1183</ele>
        <time>2021-06-19T12:11:08Z</time>
      </trkpt>
      <trkpt lat="42.99304" lon="0.17437">
        <ele>1186</ele>
        <time>2021-06-19T12:11:29Z</time>
      </trkpt>
      <trkpt lat="42.99301" lon="0.17435">
        <ele>1186</ele>
        <time>2021-06-19T12:11:40Z</time>
      </trkpt>
      <trkpt lat="42.993" lon="0.17429">
        <ele>1188</ele>
        <time>2021-06-19T12:11:45Z</time>
      </trkpt>
      <trkpt lat="42.99298" lon="0.17426">
        <ele>1189</ele>
        <time>2021-06-19T12:11:51Z</time>
      </trkpt>
      <trkpt lat="42.99296" lon="0.17422">
        <ele>1191</ele>
        <time>2021-06-19T12:16:06Z</time>
      </trkpt>
      <trkpt lat="42.99296" lon="0.17417">
        <ele>1190</ele>
        <time>2021-06-19T12:16:11Z</time>
      </trkpt>
      <trkpt lat="42.99292" lon="0.17408">
        <ele>1185</ele>
        <time>2021-06-19T12:16:21Z</time>
      </trkpt>
      <trkpt lat="42.9929" lon="0.17404">
        <ele>1186</ele>
        <time>2021-06-19T12:16:25Z</time>
      </trkpt>
      <trkpt lat="42.99288" lon="0.17395">
        <ele>1188</ele>
        <time>2021-06-19T12:16:37Z</time>
      </trkpt>
      <trkpt lat="42.99286" lon="0.17391">
        <ele>1191</ele>
        <time>2021-06-19T12:16:44Z</time>
      </trkpt>
      <trkpt lat="42.99286" lon="0.17386">
        <ele>1193</ele>
        <time>2021-06-19T12:16:51Z</time>
      </trkpt>
      <trkpt lat="42.99284" lon="0.17381">
        <ele>1194</ele>
        <time>2021-06-19T12:17:02Z</time>
      </trkpt>
      <trkpt lat="42.99282" lon="0.17377">
        <ele>1194</ele>
        <time>2021-06-19T12:17:10Z</time>
      </trkpt>
      <trkpt lat="42.99282" lon="0.17368">
        <ele>1197</ele>
        <time>2021-06-19T12:18:22Z</time>
      </trkpt>
      <trkpt lat="42.99284" lon="0.17364">
        <ele>1197</ele>
        <time>2021-06-19T12:18:29Z</time>
      </trkpt>
      <trkpt lat="42.99295" lon="0.17355">
        <ele>1196</ele>
        <time>2021-06-19T12:18:58Z</time>
      </trkpt>
      <trkpt lat="42.99299" lon="0.17354">
        <ele>1195</ele>
        <time>2021-06-19T12:19:02Z</time>
      </trkpt>
      <trkpt lat="42.99303" lon="0.17355">
        <ele>1194</ele>
        <time>2021-06-19T12:19:05Z</time>
      </trkpt>
      <trkpt lat="42.99311" lon="0.17354">
        <ele>1194</ele>
        <time>2021-06-19T12:19:13Z</time>
      </trkpt>
      <trkpt lat="42.99315" lon="0.17355">
        <ele>1195</ele>
        <time>2021-06-19T12:19:16Z</time>
      </trkpt>
      <trkpt lat="42.99318" lon="0.17353">
        <ele>1195</ele>
        <time>2021-06-19T12:19:28Z</time>
      </trkpt>
      <trkpt lat="42.99322" lon="0.17354">
        <ele>1195</ele>
        <time>2021-06-19T12:19:34Z</time>
      </trkpt>
      <trkpt lat="42.99326" lon="0.17353">
        <ele>1196</ele>
        <time>2021-06-19T12:19:42Z</time>
      </trkpt>
      <trkpt lat="42.99333" lon="0.1735">
        <ele>1197</ele>
        <time>2021-06-19T12:20:08Z</time>
      </trkpt>
      <trkpt lat="42.99336" lon="0.17348">
        <ele>1198</ele>
        <time>2021-06-19T12:20:26Z</time>
      </trkpt>
      <trkpt lat="42.99341" lon="0.17347">
        <ele>1198</ele>
        <time>2021-06-19T12:20:32Z</time>
      </trkpt>
      <trkpt lat="42.99344" lon="0.17343">
        <ele>1197</ele>
        <time>2021-06-19T12:20:35Z</time>
      </trkpt>
      <trkpt lat="42.99347" lon="0.17339">
        <ele>1197</ele>
        <time>2021-06-19T12:20:38Z</time>
      </trkpt>
      <trkpt lat="42.99353" lon="0.17332">
        <ele>1189</ele>
        <time>2021-06-19T12:20:45Z</time>
      </trkpt>
      <trkpt lat="42.99356" lon="0.17329">
        <ele>1191</ele>
        <time>2021-06-19T12:20:49Z</time>
      </trkpt>
      <trkpt lat="42.99359" lon="0.17327">
        <ele>1186</ele>
        <time>2021-06-19T12:20:54Z</time>
      </trkpt>
      <trkpt lat="42.99363" lon="0.17326">
        <ele>1188</ele>
        <time>2021-06-19T12:20:58Z</time>
      </trkpt>
      <trkpt lat="42.99367" lon="0.17325">
        <ele>1190</ele>
        <time>2021-06-19T12:21:00Z</time>
      </trkpt>
      <trkpt lat="42.99374" lon="0.17316">
        <ele>1194</ele>
        <time>2021-06-19T12:21:06Z</time>
      </trkpt>
      <trkpt lat="42.99382" lon="0.17311">
        <ele>1195</ele>
        <time>2021-06-19T12:21:12Z</time>
      </trkpt>
      <trkpt lat="42.99391" lon="0.17309">
        <ele>1197</ele>
        <time>2021-06-19T12:21:19Z</time>
      </trkpt>
      <trkpt lat="42.99402" lon="0.173">
        <ele>1195</ele>
        <time>2021-06-19T12:21:29Z</time>
      </trkpt>
      <trkpt lat="42.99406" lon="0.173">
        <ele>1194</ele>
        <time>2021-06-19T12:21:32Z</time>
      </trkpt>
      <trkpt lat="42.99409" lon="0.17298">
        <ele>1193</ele>
        <time>2021-06-19T12:21:35Z</time>
      </trkpt>
      <trkpt lat="42.99412" lon="0.17293">
        <ele>1192</ele>
        <time>2021-06-19T12:21:38Z</time>
      </trkpt>
      <trkpt lat="42.99412" lon="0.17288">
        <ele>1191</ele>
        <time>2021-06-19T12:21:42Z</time>
      </trkpt>
      <trkpt lat="42.99412" lon="0.17283">
        <ele>1191</ele>
        <time>2021-06-19T12:21:46Z</time>
      </trkpt>
      <trkpt lat="42.99413" lon="0.17278">
        <ele>1191</ele>
        <time>2021-06-19T12:21:50Z</time>
      </trkpt>
      <trkpt lat="42.99413" lon="0.17273">
        <ele>1191</ele>
        <time>2021-06-19T12:21:54Z</time>
      </trkpt>
      <trkpt lat="42.99414" lon="0.17268">
        <ele>1191</ele>
        <time>2021-06-19T12:21:59Z</time>
      </trkpt>
      <trkpt lat="42.99414" lon="0.17252">
        <ele>1192</ele>
        <time>2021-06-19T12:22:10Z</time>
      </trkpt>
      <trkpt lat="42.99416" lon="0.17247">
        <ele>1192</ele>
        <time>2021-06-19T12:22:18Z</time>
      </trkpt>
      <trkpt lat="42.99423" lon="0.17246">
        <ele>1196</ele>
        <time>2021-06-19T12:22:47Z</time>
      </trkpt>
      <trkpt lat="42.99425" lon="0.17241">
        <ele>1196</ele>
        <time>2021-06-19T12:22:56Z</time>
      </trkpt>
      <trkpt lat="42.99428" lon="0.17242">
        <ele>1196</ele>
        <time>2021-06-19T12:23:05Z</time>
      </trkpt>
      <trkpt lat="42.99432" lon="0.17242">
        <ele>1194</ele>
        <time>2021-06-19T12:23:53Z</time>
      </trkpt>
      <trkpt lat="42.99435" lon="0.17244">
        <ele>1193</ele>
        <time>2021-06-19T12:23:56Z</time>
      </trkpt>
      <trkpt lat="42.99442" lon="0.17251">
        <ele>1193</ele>
        <time>2021-06-19T12:24:04Z</time>
      </trkpt>
      <trkpt lat="42.99446" lon="0.1725">
        <ele>1193</ele>
        <time>2021-06-19T12:24:09Z</time>
      </trkpt>
      <trkpt lat="42.99456" lon="0.17242">
        <ele>1195</ele>
        <time>2021-06-19T12:24:20Z</time>
      </trkpt>
      <trkpt lat="42.9946" lon="0.17241">
        <ele>1195</ele>
        <time>2021-06-19T12:24:23Z</time>
      </trkpt>
      <trkpt lat="42.99472" lon="0.17237">
        <ele>1190</ele>
        <time>2021-06-19T12:24:36Z</time>
      </trkpt>
      <trkpt lat="42.99476" lon="0.17236">
        <ele>1186</ele>
        <time>2021-06-19T12:24:40Z</time>
      </trkpt>
      <trkpt lat="42.9948" lon="0.17234">
        <ele>1191</ele>
        <time>2021-06-19T12:24:55Z</time>
      </trkpt>
      <trkpt lat="42.9949" lon="0.1722">
        <ele>1189</ele>
        <time>2021-06-19T12:25:14Z</time>
      </trkpt>
      <trkpt lat="42.99494" lon="0.17217">
        <ele>1189</ele>
        <time>2021-06-19T12:25:19Z</time>
      </trkpt>
      <trkpt lat="42.99497" lon="0.17216">
        <ele>1190</ele>
        <time>2021-06-19T12:25:24Z</time>
      </trkpt>
      <trkpt lat="42.99505" lon="0.17214">
        <ele>1188</ele>
        <time>2021-06-19T12:25:59Z</time>
      </trkpt>
      <trkpt lat="42.99509" lon="0.17214">
        <ele>1188</ele>
        <time>2021-06-19T12:26:04Z</time>
      </trkpt>
      <trkpt lat="42.99512" lon="0.17214">
        <ele>1187</ele>
        <time>2021-06-19T12:26:08Z</time>
      </trkpt>
      <trkpt lat="42.99519" lon="0.17215">
        <ele>1186</ele>
        <time>2021-06-19T12:26:20Z</time>
      </trkpt>
      <trkpt lat="42.99527" lon="0.17214">
        <ele>1185</ele>
        <time>2021-06-19T12:26:34Z</time>
      </trkpt>
      <trkpt lat="42.99536" lon="0.17203">
        <ele>1183</ele>
        <time>2021-06-19T12:26:50Z</time>
      </trkpt>
      <trkpt lat="42.99539" lon="0.17201">
        <ele>1182</ele>
        <time>2021-06-19T12:26:57Z</time>
      </trkpt>
      <trkpt lat="42.99542" lon="0.17198">
        <ele>1183</ele>
        <time>2021-06-19T12:27:08Z</time>
      </trkpt>
      <trkpt lat="42.99544" lon="0.17193">
        <ele>1182</ele>
        <time>2021-06-19T12:27:41Z</time>
      </trkpt>
      <trkpt lat="42.99548" lon="0.17191">
        <ele>1181</ele>
        <time>2021-06-19T12:27:46Z</time>
      </trkpt>
      <trkpt lat="42.99548" lon="0.17197">
        <ele>1180</ele>
        <time>2021-06-19T12:27:51Z</time>
      </trkpt>
      <trkpt lat="42.99549" lon="0.17203">
        <ele>1178</ele>
        <time>2021-06-19T12:27:56Z</time>
      </trkpt>
      <trkpt lat="42.99552" lon="0.17205">
        <ele>1179</ele>
        <time>2021-06-19T12:28:02Z</time>
      </trkpt>
      <trkpt lat="42.9956" lon="0.17202">
        <ele>1180</ele>
        <time>2021-06-19T12:28:10Z</time>
      </trkpt>
      <trkpt lat="42.99562" lon="0.17206">
        <ele>1180</ele>
        <time>2021-06-19T12:28:18Z</time>
      </trkpt>
      <trkpt lat="42.99565" lon="0.17208">
        <ele>1180</ele>
        <time>2021-06-19T12:28:27Z</time>
      </trkpt>
      <trkpt lat="42.99569" lon="0.17209">
        <ele>1178</ele>
        <time>2021-06-19T12:28:39Z</time>
      </trkpt>
      <trkpt lat="42.99572" lon="0.17213">
        <ele>1178</ele>
        <time>2021-06-19T12:28:43Z</time>
      </trkpt>
      <trkpt lat="42.99577" lon="0.1722">
        <ele>1178</ele>
        <time>2021-06-19T12:28:51Z</time>
      </trkpt>
      <trkpt lat="42.99582" lon="0.1723">
        <ele>1178</ele>
        <time>2021-06-19T12:29:05Z</time>
      </trkpt>
      <trkpt lat="42.99587" lon="0.17237">
        <ele>1177</ele>
        <time>2021-06-19T12:29:16Z</time>
      </trkpt>
      <trkpt lat="42.99591" lon="0.17237">
        <ele>1176</ele>
        <time>2021-06-19T12:29:35Z</time>
      </trkpt>
      <trkpt lat="42.99594" lon="0.17239">
        <ele>1176</ele>
        <time>2021-06-19T12:29:43Z</time>
      </trkpt>
      <trkpt lat="42.99594" lon="0.17245">
        <ele>1176</ele>
        <time>2021-06-19T12:29:47Z</time>
      </trkpt>
      <trkpt lat="42.99603" lon="0.17256">
        <ele>1176</ele>
        <time>2021-06-19T12:30:05Z</time>
      </trkpt>
      <trkpt lat="42.99605" lon="0.17261">
        <ele>1175</ele>
        <time>2021-06-19T12:30:09Z</time>
      </trkpt>
      <trkpt lat="42.99607" lon="0.17265">
        <ele>1175</ele>
        <time>2021-06-19T12:30:13Z</time>
      </trkpt>
      <trkpt lat="42.99614" lon="0.1727">
        <ele>1173</ele>
        <time>2021-06-19T12:30:22Z</time>
      </trkpt>
      <trkpt lat="42.99616" lon="0.17274">
        <ele>1172</ele>
        <time>2021-06-19T12:30:26Z</time>
      </trkpt>
      <trkpt lat="42.99619" lon="0.17278">
        <ele>1172</ele>
        <time>2021-06-19T12:30:29Z</time>
      </trkpt>
      <trkpt lat="42.99624" lon="0.17285">
        <ele>1170</ele>
        <time>2021-06-19T12:30:37Z</time>
      </trkpt>
      <trkpt lat="42.99627" lon="0.17288">
        <ele>1169</ele>
        <time>2021-06-19T12:30:41Z</time>
      </trkpt>
      <trkpt lat="42.99631" lon="0.17291">
        <ele>1169</ele>
        <time>2021-06-19T12:30:45Z</time>
      </trkpt>
      <trkpt lat="42.99634" lon="0.17293">
        <ele>1168</ele>
        <time>2021-06-19T12:30:52Z</time>
      </trkpt>
      <trkpt lat="42.99637" lon="0.17297">
        <ele>1168</ele>
        <time>2021-06-19T12:30:56Z</time>
      </trkpt>
      <trkpt lat="42.99644" lon="0.17303">
        <ele>1168</ele>
        <time>2021-06-19T12:31:04Z</time>
      </trkpt>
      <trkpt lat="42.99648" lon="0.17304">
        <ele>1168</ele>
        <time>2021-06-19T12:31:09Z</time>
      </trkpt>
      <trkpt lat="42.99651" lon="0.17307">
        <ele>1168</ele>
        <time>2021-06-19T12:31:13Z</time>
      </trkpt>
      <trkpt lat="42.99655" lon="0.17307">
        <ele>1167</ele>
        <time>2021-06-19T12:31:17Z</time>
      </trkpt>
      <trkpt lat="42.99659" lon="0.17307">
        <ele>1167</ele>
        <time>2021-06-19T12:31:23Z</time>
      </trkpt>
      <trkpt lat="42.99662" lon="0.17306">
        <ele>1168</ele>
        <time>2021-06-19T12:31:30Z</time>
      </trkpt>
      <trkpt lat="42.99666" lon="0.17302">
        <ele>1169</ele>
        <time>2021-06-19T12:31:34Z</time>
      </trkpt>
      <trkpt lat="42.99669" lon="0.17298">
        <ele>1165</ele>
        <time>2021-06-19T12:31:39Z</time>
      </trkpt>
      <trkpt lat="42.99672" lon="0.17295">
        <ele>1163</ele>
        <time>2021-06-19T12:31:44Z</time>
      </trkpt>
      <trkpt lat="42.99674" lon="0.1729">
        <ele>1164</ele>
        <time>2021-06-19T12:31:48Z</time>
      </trkpt>
      <trkpt lat="42.99676" lon="0.17285">
        <ele>1165</ele>
        <time>2021-06-19T12:31:53Z</time>
      </trkpt>
      <trkpt lat="42.99678" lon="0.17281">
        <ele>1166</ele>
        <time>2021-06-19T12:31:58Z</time>
      </trkpt>
      <trkpt lat="42.99681" lon="0.17271">
        <ele>1166</ele>
        <time>2021-06-19T12:32:06Z</time>
      </trkpt>
      <trkpt lat="42.99682" lon="0.17267">
        <ele>1165</ele>
        <time>2021-06-19T12:32:10Z</time>
      </trkpt>
      <trkpt lat="42.99685" lon="0.17258">
        <ele>1166</ele>
        <time>2021-06-19T12:33:15Z</time>
      </trkpt>
      <trkpt lat="42.99692" lon="0.17254">
        <ele>1167</ele>
        <time>2021-06-19T12:33:30Z</time>
      </trkpt>
      <trkpt lat="42.99702" lon="0.1726">
        <ele>1164</ele>
        <time>2021-06-19T12:33:49Z</time>
      </trkpt>
      <trkpt lat="42.99706" lon="0.17268">
        <ele>1163</ele>
        <time>2021-06-19T12:33:58Z</time>
      </trkpt>
      <trkpt lat="42.99709" lon="0.1727">
        <ele>1161</ele>
        <time>2021-06-19T12:34:02Z</time>
      </trkpt>
      <trkpt lat="42.99713" lon="0.17272">
        <ele>1160</ele>
        <time>2021-06-19T12:34:07Z</time>
      </trkpt>
      <trkpt lat="42.99717" lon="0.17274">
        <ele>1160</ele>
        <time>2021-06-19T12:34:12Z</time>
      </trkpt>
      <trkpt lat="42.99732" lon="0.17289">
        <ele>1160</ele>
        <time>2021-06-19T12:34:32Z</time>
      </trkpt>
      <trkpt lat="42.99735" lon="0.17293">
        <ele>1161</ele>
        <time>2021-06-19T12:34:37Z</time>
      </trkpt>
      <trkpt lat="42.99738" lon="0.17297">
        <ele>1163</ele>
        <time>2021-06-19T12:34:42Z</time>
      </trkpt>
      <trkpt lat="42.99744" lon="0.17303">
        <ele>1163</ele>
        <time>2021-06-19T12:34:54Z</time>
      </trkpt>
      <trkpt lat="42.99746" lon="0.17307">
        <ele>1163</ele>
        <time>2021-06-19T12:34:58Z</time>
      </trkpt>
      <trkpt lat="42.9975" lon="0.17311">
        <ele>1164</ele>
        <time>2021-06-19T12:35:03Z</time>
      </trkpt>
      <trkpt lat="42.99753" lon="0.17313">
        <ele>1163</ele>
        <time>2021-06-19T12:35:07Z</time>
      </trkpt>
      <trkpt lat="42.99757" lon="0.17313">
        <ele>1164</ele>
        <time>2021-06-19T12:35:13Z</time>
      </trkpt>
      <trkpt lat="42.99761" lon="0.17313">
        <ele>1163</ele>
        <time>2021-06-19T12:35:19Z</time>
      </trkpt>
      <trkpt lat="42.99764" lon="0.17313">
        <ele>1161</ele>
        <time>2021-06-19T12:35:25Z</time>
      </trkpt>
      <trkpt lat="42.99775" lon="0.1732">
        <ele>1159</ele>
        <time>2021-06-19T12:35:39Z</time>
      </trkpt>
      <trkpt lat="42.99779" lon="0.17319">
        <ele>1158</ele>
        <time>2021-06-19T12:35:44Z</time>
      </trkpt>
      <trkpt lat="42.9979" lon="0.17313">
        <ele>1158</ele>
        <time>2021-06-19T12:35:58Z</time>
      </trkpt>
      <trkpt lat="42.99793" lon="0.17311">
        <ele>1158</ele>
        <time>2021-06-19T12:36:02Z</time>
      </trkpt>
      <trkpt lat="42.99801" lon="0.17311">
        <ele>1159</ele>
        <time>2021-06-19T12:36:11Z</time>
      </trkpt>
      <trkpt lat="42.99804" lon="0.17311">
        <ele>1159</ele>
        <time>2021-06-19T12:36:16Z</time>
      </trkpt>
      <trkpt lat="42.99809" lon="0.17311">
        <ele>1157</ele>
        <time>2021-06-19T12:36:21Z</time>
      </trkpt>
      <trkpt lat="42.99816" lon="0.17315">
        <ele>1155</ele>
        <time>2021-06-19T12:36:28Z</time>
      </trkpt>
      <trkpt lat="42.99817" lon="0.1732">
        <ele>1154</ele>
        <time>2021-06-19T12:36:33Z</time>
      </trkpt>
      <trkpt lat="42.99821" lon="0.1733">
        <ele>1155</ele>
        <time>2021-06-19T12:36:42Z</time>
      </trkpt>
      <trkpt lat="42.99822" lon="0.17335">
        <ele>1156</ele>
        <time>2021-06-19T12:36:48Z</time>
      </trkpt>
      <trkpt lat="42.99827" lon="0.17344">
        <ele>1157</ele>
        <time>2021-06-19T12:36:56Z</time>
      </trkpt>
      <trkpt lat="42.9983" lon="0.17347">
        <ele>1156</ele>
        <time>2021-06-19T12:37:02Z</time>
      </trkpt>
      <trkpt lat="42.99834" lon="0.17351">
        <ele>1155</ele>
        <time>2021-06-19T12:37:06Z</time>
      </trkpt>
      <trkpt lat="42.99838" lon="0.17352">
        <ele>1153</ele>
        <time>2021-06-19T12:37:11Z</time>
      </trkpt>
      <trkpt lat="42.99844" lon="0.17356">
        <ele>1151</ele>
        <time>2021-06-19T12:37:20Z</time>
      </trkpt>
      <trkpt lat="42.99853" lon="0.17366">
        <ele>1149</ele>
        <time>2021-06-19T12:37:33Z</time>
      </trkpt>
      <trkpt lat="42.99857" lon="0.17368">
        <ele>1149</ele>
        <time>2021-06-19T12:37:38Z</time>
      </trkpt>
      <trkpt lat="42.9986" lon="0.17371">
        <ele>1149</ele>
        <time>2021-06-19T12:37:43Z</time>
      </trkpt>
      <trkpt lat="42.99862" lon="0.17375">
        <ele>1149</ele>
        <time>2021-06-19T12:37:48Z</time>
      </trkpt>
      <trkpt lat="42.99864" lon="0.17385">
        <ele>1147</ele>
        <time>2021-06-19T12:38:07Z</time>
      </trkpt>
      <trkpt lat="42.99866" lon="0.17389">
        <ele>1148</ele>
        <time>2021-06-19T12:38:13Z</time>
      </trkpt>
      <trkpt lat="42.99866" lon="0.17394">
        <ele>1148</ele>
        <time>2021-06-19T12:38:18Z</time>
      </trkpt>
      <trkpt lat="42.99865" lon="0.17405">
        <ele>1152</ele>
        <time>2021-06-19T12:38:32Z</time>
      </trkpt>
      <trkpt lat="42.99868" lon="0.17409">
        <ele>1151</ele>
        <time>2021-06-19T12:38:40Z</time>
      </trkpt>
      <trkpt lat="42.9987" lon="0.17413">
        <ele>1150</ele>
        <time>2021-06-19T12:38:50Z</time>
      </trkpt>
      <trkpt lat="42.99873" lon="0.17416">
        <ele>1149</ele>
        <time>2021-06-19T12:38:59Z</time>
      </trkpt>
      <trkpt lat="42.99875" lon="0.1742">
        <ele>1148</ele>
        <time>2021-06-19T12:39:05Z</time>
      </trkpt>
      <trkpt lat="42.99878" lon="0.17424">
        <ele>1147</ele>
        <time>2021-06-19T12:39:10Z</time>
      </trkpt>
      <trkpt lat="42.99879" lon="0.17429">
        <ele>1147</ele>
        <time>2021-06-19T12:39:15Z</time>
      </trkpt>
      <trkpt lat="42.99883" lon="0.17431">
        <ele>1147</ele>
        <time>2021-06-19T12:39:22Z</time>
      </trkpt>
      <trkpt lat="42.99885" lon="0.17436">
        <ele>1148</ele>
        <time>2021-06-19T12:39:30Z</time>
      </trkpt>
      <trkpt lat="42.99893" lon="0.17442">
        <ele>1149</ele>
        <time>2021-06-19T12:39:40Z</time>
      </trkpt>
      <trkpt lat="42.99901" lon="0.17442">
        <ele>1150</ele>
        <time>2021-06-19T12:39:55Z</time>
      </trkpt>
      <trkpt lat="42.99909" lon="0.17445">
        <ele>1151</ele>
        <time>2021-06-19T12:40:11Z</time>
      </trkpt>
      <trkpt lat="42.99915" lon="0.17448">
        <ele>1150</ele>
        <time>2021-06-19T12:40:27Z</time>
      </trkpt>
      <trkpt lat="42.99919" lon="0.17449">
        <ele>1150</ele>
        <time>2021-06-19T12:40:31Z</time>
      </trkpt>
      <trkpt lat="42.99923" lon="0.17449">
        <ele>1150</ele>
        <time>2021-06-19T12:40:36Z</time>
      </trkpt>
      <trkpt lat="42.99927" lon="0.17449">
        <ele>1150</ele>
        <time>2021-06-19T12:40:41Z</time>
      </trkpt>
      <trkpt lat="42.99937" lon="0.17446">
        <ele>1155</ele>
        <time>2021-06-19T12:40:57Z</time>
      </trkpt>
      <trkpt lat="42.99941" lon="0.17444">
        <ele>1156</ele>
        <time>2021-06-19T12:41:02Z</time>
      </trkpt>
      <trkpt lat="42.99944" lon="0.17442">
        <ele>1159</ele>
        <time>2021-06-19T12:41:09Z</time>
      </trkpt>
      <trkpt lat="42.99947" lon="0.17441">
        <ele>1159</ele>
        <time>2021-06-19T12:41:18Z</time>
      </trkpt>
      <trkpt lat="42.99949" lon="0.17436">
        <ele>1161</ele>
        <time>2021-06-19T12:41:27Z</time>
      </trkpt>
      <trkpt lat="42.99952" lon="0.17433">
        <ele>1161</ele>
        <time>2021-06-19T12:41:37Z</time>
      </trkpt>
      <trkpt lat="42.99956" lon="0.17432">
        <ele>1162</ele>
        <time>2021-06-19T12:41:47Z</time>
      </trkpt>
      <trkpt lat="42.99962" lon="0.1742">
        <ele>1163</ele>
        <time>2021-06-19T12:42:02Z</time>
      </trkpt>
      <trkpt lat="42.99965" lon="0.17416">
        <ele>1162</ele>
        <time>2021-06-19T12:42:11Z</time>
      </trkpt>
      <trkpt lat="42.99968" lon="0.17413">
        <ele>1162</ele>
        <time>2021-06-19T12:42:22Z</time>
      </trkpt>
      <trkpt lat="42.99977" lon="0.17405">
        <ele>1164</ele>
        <time>2021-06-19T12:42:37Z</time>
      </trkpt>
      <trkpt lat="42.9998" lon="0.17401">
        <ele>1163</ele>
        <time>2021-06-19T12:42:42Z</time>
      </trkpt>
      <trkpt lat="42.99983" lon="0.17398">
        <ele>1163</ele>
        <time>2021-06-19T12:42:48Z</time>
      </trkpt>
      <trkpt lat="42.99984" lon="0.17393">
        <ele>1163</ele>
        <time>2021-06-19T12:42:55Z</time>
      </trkpt>
      <trkpt lat="42.99985" lon="0.17388">
        <ele>1163</ele>
        <time>2021-06-19T12:43:01Z</time>
      </trkpt>
      <trkpt lat="42.99987" lon="0.17384">
        <ele>1165</ele>
        <time>2021-06-19T12:43:06Z</time>
      </trkpt>
      <trkpt lat="42.99987" lon="0.17379">
        <ele>1167</ele>
        <time>2021-06-19T12:43:12Z</time>
      </trkpt>
      <trkpt lat="42.9999" lon="0.17376">
        <ele>1168</ele>
        <time>2021-06-19T12:43:18Z</time>
      </trkpt>
      <trkpt lat="42.99991" lon="0.17366">
        <ele>1171</ele>
        <time>2021-06-19T12:43:31Z</time>
      </trkpt>
      <trkpt lat="42.99992" lon="0.17361">
        <ele>1171</ele>
        <time>2021-06-19T12:43:39Z</time>
      </trkpt>
      <trkpt lat="42.99999" lon="0.17355">
        <ele>1174</ele>
        <time>2021-06-19T12:43:48Z</time>
      </trkpt>
      <trkpt lat="43.00002" lon="0.17353">
        <ele>1176</ele>
        <time>2021-06-19T12:43:52Z</time>
      </trkpt>
      <trkpt lat="43.00005" lon="0.17349">
        <ele>1176</ele>
        <time>2021-06-19T12:43:58Z</time>
      </trkpt>
      <trkpt lat="43.00007" lon="0.17345">
        <ele>1164</ele>
        <time>2021-06-19T12:44:03Z</time>
      </trkpt>
      <trkpt lat="43.0001" lon="0.17343">
        <ele>1168</ele>
        <time>2021-06-19T12:44:08Z</time>
      </trkpt>
      <trkpt lat="43.00014" lon="0.17342">
        <ele>1173</ele>
        <time>2021-06-19T12:44:26Z</time>
      </trkpt>
      <trkpt lat="43.00033" lon="0.17337">
        <ele>1173</ele>
        <time>2021-06-19T12:44:59Z</time>
      </trkpt>
      <trkpt lat="43.00039" lon="0.17333">
        <ele>1174</ele>
        <time>2021-06-19T12:45:22Z</time>
      </trkpt>
      <trkpt lat="43.00036" lon="0.17331">
        <ele>1175</ele>
        <time>2021-06-19T12:49:54Z</time>
      </trkpt>
      <trkpt lat="43.0002" lon="0.17331">
        <ele>1176</ele>
        <time>2021-06-19T12:50:15Z</time>
      </trkpt>
      <trkpt lat="43.00017" lon="0.17331">
        <ele>1175</ele>
        <time>2021-06-19T12:50:19Z</time>
      </trkpt>
      <trkpt lat="43.00015" lon="0.17327">
        <ele>1176</ele>
        <time>2021-06-19T12:50:25Z</time>
      </trkpt>
      <trkpt lat="43.00013" lon="0.17323">
        <ele>1177</ele>
        <time>2021-06-19T12:50:40Z</time>
      </trkpt>
      <trkpt lat="43.00012" lon="0.17317">
        <ele>1176</ele>
        <time>2021-06-19T12:50:47Z</time>
      </trkpt>
      <trkpt lat="43.00013" lon="0.17308">
        <ele>1177</ele>
        <time>2021-06-19T12:50:58Z</time>
      </trkpt>
      <trkpt lat="43.00013" lon="0.17303">
        <ele>1181</ele>
        <time>2021-06-19T12:51:06Z</time>
      </trkpt>
      <trkpt lat="43.00016" lon="0.17299">
        <ele>1181</ele>
        <time>2021-06-19T12:51:53Z</time>
      </trkpt>
      <trkpt lat="43.00022" lon="0.17287">
        <ele>1184</ele>
        <time>2021-06-19T12:52:09Z</time>
      </trkpt>
      <trkpt lat="43.00026" lon="0.17268">
        <ele>1186</ele>
        <time>2021-06-19T12:52:38Z</time>
      </trkpt>
      <trkpt lat="43.00026" lon="0.17258">
        <ele>1185</ele>
        <time>2021-06-19T12:52:46Z</time>
      </trkpt>
      <trkpt lat="43.00027" lon="0.17253">
        <ele>1185</ele>
        <time>2021-06-19T12:52:51Z</time>
      </trkpt>
      <trkpt lat="43.00028" lon="0.17248">
        <ele>1185</ele>
        <time>2021-06-19T12:52:56Z</time>
      </trkpt>
      <trkpt lat="43.00028" lon="0.17238">
        <ele>1186</ele>
        <time>2021-06-19T12:53:04Z</time>
      </trkpt>
      <trkpt lat="43.0003" lon="0.17233">
        <ele>1185</ele>
        <time>2021-06-19T12:53:08Z</time>
      </trkpt>
      <trkpt lat="43.00031" lon="0.17227">
        <ele>1186</ele>
        <time>2021-06-19T12:53:14Z</time>
      </trkpt>
      <trkpt lat="43.00031" lon="0.17222">
        <ele>1186</ele>
        <time>2021-06-19T12:53:19Z</time>
      </trkpt>
      <trkpt lat="43.00032" lon="0.17218">
        <ele>1186</ele>
        <time>2021-06-19T12:54:02Z</time>
      </trkpt>
      <trkpt lat="43.00032" lon="0.17212">
        <ele>1184</ele>
        <time>2021-06-19T12:55:06Z</time>
      </trkpt>
      <trkpt lat="43.00036" lon="0.17197">
        <ele>1189</ele>
        <time>2021-06-19T12:55:19Z</time>
      </trkpt>
      <trkpt lat="43.00036" lon="0.17191">
        <ele>1189</ele>
        <time>2021-06-19T12:55:23Z</time>
      </trkpt>
      <trkpt lat="43.00037" lon="0.17186">
        <ele>1188</ele>
        <time>2021-06-19T12:55:27Z</time>
      </trkpt>
      <trkpt lat="43.00041" lon="0.17164">
        <ele>1188</ele>
        <time>2021-06-19T12:55:42Z</time>
      </trkpt>
      <trkpt lat="43.00042" lon="0.17159">
        <ele>1189</ele>
        <time>2021-06-19T12:55:45Z</time>
      </trkpt>
      <trkpt lat="43.00042" lon="0.17154">
        <ele>1189</ele>
        <time>2021-06-19T12:55:48Z</time>
      </trkpt>
      <trkpt lat="43.00043" lon="0.17143">
        <ele>1189</ele>
        <time>2021-06-19T12:55:57Z</time>
      </trkpt>
      <trkpt lat="43.00044" lon="0.17131">
        <ele>1189</ele>
        <time>2021-06-19T12:56:06Z</time>
      </trkpt>
      <trkpt lat="43.00044" lon="0.17126">
        <ele>1188</ele>
        <time>2021-06-19T12:56:10Z</time>
      </trkpt>
      <trkpt lat="43.00045" lon="0.1712">
        <ele>1188</ele>
        <time>2021-06-19T12:56:14Z</time>
      </trkpt>
      <trkpt lat="43.00044" lon="0.17115">
        <ele>1188</ele>
        <time>2021-06-19T12:56:18Z</time>
      </trkpt>
      <trkpt lat="43.00045" lon="0.17109">
        <ele>1188</ele>
        <time>2021-06-19T12:56:22Z</time>
      </trkpt>
      <trkpt lat="43.00045" lon="0.17104">
        <ele>1187</ele>
        <time>2021-06-19T12:56:25Z</time>
      </trkpt>
      <trkpt lat="43.00046" lon="0.17099">
        <ele>1186</ele>
        <time>2021-06-19T12:56:29Z</time>
      </trkpt>
      <trkpt lat="43.00046" lon="0.17094">
        <ele>1185</ele>
        <time>2021-06-19T12:56:33Z</time>
      </trkpt>
      <trkpt lat="43.00049" lon="0.17073">
        <ele>1187</ele>
        <time>2021-06-19T12:56:47Z</time>
      </trkpt>
      <trkpt lat="43.0005" lon="0.17068">
        <ele>1187</ele>
        <time>2021-06-19T12:56:51Z</time>
      </trkpt>
      <trkpt lat="43.00051" lon="0.17063">
        <ele>1186</ele>
        <time>2021-06-19T12:56:56Z</time>
      </trkpt>
      <trkpt lat="43.0005" lon="0.17059">
        <ele>1186</ele>
        <time>2021-06-19T12:57:00Z</time>
      </trkpt>
      <trkpt lat="43.00051" lon="0.17054">
        <ele>1187</ele>
        <time>2021-06-19T12:57:04Z</time>
      </trkpt>
      <trkpt lat="43.00053" lon="0.17049">
        <ele>1187</ele>
        <time>2021-06-19T12:57:09Z</time>
      </trkpt>
      <trkpt lat="43.00054" lon="0.17043">
        <ele>1187</ele>
        <time>2021-06-19T12:58:23Z</time>
      </trkpt>
      <trkpt lat="43.00056" lon="0.17038">
        <ele>1187</ele>
        <time>2021-06-19T12:58:27Z</time>
      </trkpt>
      <trkpt lat="43.00057" lon="0.17033">
        <ele>1187</ele>
        <time>2021-06-19T12:58:32Z</time>
      </trkpt>
      <trkpt lat="43.00063" lon="0.17027">
        <ele>1187</ele>
        <time>2021-06-19T12:58:54Z</time>
      </trkpt>
      <trkpt lat="43.00066" lon="0.17023">
        <ele>1184</ele>
        <time>2021-06-19T12:58:58Z</time>
      </trkpt>
      <trkpt lat="43.00068" lon="0.17019">
        <ele>1183</ele>
        <time>2021-06-19T12:59:27Z</time>
      </trkpt>
      <trkpt lat="43.00069" lon="0.17015">
        <ele>1185</ele>
        <time>2021-06-19T12:59:32Z</time>
      </trkpt>
      <trkpt lat="43.00068" lon="0.1701">
        <ele>1185</ele>
        <time>2021-06-19T12:59:38Z</time>
      </trkpt>
      <trkpt lat="43.00068" lon="0.16999">
        <ele>1184</ele>
        <time>2021-06-19T12:59:49Z</time>
      </trkpt>
      <trkpt lat="43.00067" lon="0.16994">
        <ele>1175</ele>
        <time>2021-06-19T12:59:55Z</time>
      </trkpt>
      <trkpt lat="43.00069" lon="0.1699">
        <ele>1178</ele>
        <time>2021-06-19T13:00:01Z</time>
      </trkpt>
      <trkpt lat="43.0007" lon="0.16985">
        <ele>1184</ele>
        <time>2021-06-19T13:00:40Z</time>
      </trkpt>
      <trkpt lat="43.00066" lon="0.16987">
        <ele>1184</ele>
        <time>2021-06-19T13:01:01Z</time>
      </trkpt>
      <trkpt lat="43.00057" lon="0.1698">
        <ele>1187</ele>
        <time>2021-06-19T13:01:19Z</time>
      </trkpt>
      <trkpt lat="43.00055" lon="0.16975">
        <ele>1188</ele>
        <time>2021-06-19T13:01:25Z</time>
      </trkpt>
      <trkpt lat="43.00054" lon="0.1697">
        <ele>1188</ele>
        <time>2021-06-19T13:01:32Z</time>
      </trkpt>
      <trkpt lat="43.00054" lon="0.16965">
        <ele>1188</ele>
        <time>2021-06-19T13:01:36Z</time>
      </trkpt>
      <trkpt lat="43.00055" lon="0.1696">
        <ele>1187</ele>
        <time>2021-06-19T13:03:10Z</time>
      </trkpt>
      <trkpt lat="43.00058" lon="0.16961">
        <ele>1187</ele>
        <time>2021-06-19T13:03:16Z</time>
      </trkpt>
      <trkpt lat="43.00062" lon="0.16963">
        <ele>1188</ele>
        <time>2021-06-19T13:03:21Z</time>
      </trkpt>
      <trkpt lat="43.00066" lon="0.16966">
        <ele>1185</ele>
        <time>2021-06-19T13:03:24Z</time>
      </trkpt>
      <trkpt lat="43.00083" lon="0.16966">
        <ele>1187</ele>
        <time>2021-06-19T13:03:37Z</time>
      </trkpt>
      <trkpt lat="43.00087" lon="0.16966">
        <ele>1188</ele>
        <time>2021-06-19T13:03:40Z</time>
      </trkpt>
      <trkpt lat="43.00091" lon="0.16967">
        <ele>1188</ele>
        <time>2021-06-19T13:03:44Z</time>
      </trkpt>
      <trkpt lat="43.00096" lon="0.16968">
        <ele>1189</ele>
        <time>2021-06-19T13:03:47Z</time>
      </trkpt>
      <trkpt lat="43.001" lon="0.16969">
        <ele>1189</ele>
        <time>2021-06-19T13:03:50Z</time>
      </trkpt>
      <trkpt lat="43.00112" lon="0.16969">
        <ele>1191</ele>
        <time>2021-06-19T13:04:00Z</time>
      </trkpt>
      <trkpt lat="43.00132" lon="0.16962">
        <ele>1190</ele>
        <time>2021-06-19T13:04:13Z</time>
      </trkpt>
      <trkpt lat="43.00136" lon="0.1696">
        <ele>1191</ele>
        <time>2021-06-19T13:04:16Z</time>
      </trkpt>
      <trkpt lat="43.00146" lon="0.16951">
        <ele>1190</ele>
        <time>2021-06-19T13:04:23Z</time>
      </trkpt>
      <trkpt lat="43.00154" lon="0.16948">
        <ele>1189</ele>
        <time>2021-06-19T13:04:29Z</time>
      </trkpt>
      <trkpt lat="43.00161" lon="0.16942">
        <ele>1186</ele>
        <time>2021-06-19T13:04:35Z</time>
      </trkpt>
      <trkpt lat="43.00165" lon="0.16932">
        <ele>1184</ele>
        <time>2021-06-19T13:04:41Z</time>
      </trkpt>
      <trkpt lat="43.00172" lon="0.1693">
        <ele>1184</ele>
        <time>2021-06-19T13:04:48Z</time>
      </trkpt>
      <trkpt lat="43.00178" lon="0.16923">
        <ele>1184</ele>
        <time>2021-06-19T13:04:52Z</time>
      </trkpt>
      <trkpt lat="43.00181" lon="0.16919">
        <ele>1183</ele>
        <time>2021-06-19T13:04:56Z</time>
      </trkpt>
      <trkpt lat="43.00189" lon="0.16914">
        <ele>1181</ele>
        <time>2021-06-19T13:05:06Z</time>
      </trkpt>
      <trkpt lat="43.00192" lon="0.16916">
        <ele>1181</ele>
        <time>2021-06-19T13:05:11Z</time>
      </trkpt>
      <trkpt lat="43.00196" lon="0.16918">
        <ele>1181</ele>
        <time>2021-06-19T13:05:15Z</time>
      </trkpt>
      <trkpt lat="43.002" lon="0.16917">
        <ele>1181</ele>
        <time>2021-06-19T13:05:17Z</time>
      </trkpt>
      <trkpt lat="43.00208" lon="0.16916">
        <ele>1178</ele>
        <time>2021-06-19T13:05:26Z</time>
      </trkpt>
      <trkpt lat="43.00211" lon="0.16914">
        <ele>1175</ele>
        <time>2021-06-19T13:05:34Z</time>
      </trkpt>
      <trkpt lat="43.00218" lon="0.16916">
        <ele>1176</ele>
        <time>2021-06-19T13:05:58Z</time>
      </trkpt>
      <trkpt lat="43.00221" lon="0.16915">
        <ele>1176</ele>
        <time>2021-06-19T13:06:02Z</time>
      </trkpt>
      <trkpt lat="43.0023" lon="0.16916">
        <ele>1173</ele>
        <time>2021-06-19T13:06:13Z</time>
      </trkpt>
      <trkpt lat="43.00233" lon="0.16916">
        <ele>1172</ele>
        <time>2021-06-19T13:06:18Z</time>
      </trkpt>
      <trkpt lat="43.00245" lon="0.16914">
        <ele>1173</ele>
        <time>2021-06-19T13:06:30Z</time>
      </trkpt>
      <trkpt lat="43.00249" lon="0.16912">
        <ele>1171</ele>
        <time>2021-06-19T13:06:35Z</time>
      </trkpt>
      <trkpt lat="43.0027" lon="0.16911">
        <ele>1168</ele>
        <time>2021-06-19T13:06:57Z</time>
      </trkpt>
      <trkpt lat="43.00274" lon="0.16912">
        <ele>1167</ele>
        <time>2021-06-19T13:07:01Z</time>
      </trkpt>
      <trkpt lat="43.00277" lon="0.16911">
        <ele>1167</ele>
        <time>2021-06-19T13:07:05Z</time>
      </trkpt>
      <trkpt lat="43.00313" lon="0.16911">
        <ele>1157</ele>
        <time>2021-06-19T13:07:36Z</time>
      </trkpt>
      <trkpt lat="43.00317" lon="0.16909">
        <ele>1155</ele>
        <time>2021-06-19T13:07:41Z</time>
      </trkpt>
      <trkpt lat="43.00323" lon="0.16903">
        <ele>1153</ele>
        <time>2021-06-19T13:08:01Z</time>
      </trkpt>
      <trkpt lat="43.00327" lon="0.16901">
        <ele>1152</ele>
        <time>2021-06-19T13:08:05Z</time>
      </trkpt>
      <trkpt lat="43.00339" lon="0.16897">
        <ele>1151</ele>
        <time>2021-06-19T13:08:17Z</time>
      </trkpt>
      <trkpt lat="43.00342" lon="0.16894">
        <ele>1153</ele>
        <time>2021-06-19T13:08:22Z</time>
      </trkpt>
      <trkpt lat="43.00345" lon="0.16891">
        <ele>1153</ele>
        <time>2021-06-19T13:08:30Z</time>
      </trkpt>
      <trkpt lat="43.00349" lon="0.16892">
        <ele>1153</ele>
        <time>2021-06-19T13:08:36Z</time>
      </trkpt>
      <trkpt lat="43.00367" lon="0.16884">
        <ele>1148</ele>
        <time>2021-06-19T13:09:01Z</time>
      </trkpt>
      <trkpt lat="43.0037" lon="0.16882">
        <ele>1144</ele>
        <time>2021-06-19T13:09:17Z</time>
      </trkpt>
      <trkpt lat="43.0038" lon="0.16875">
        <ele>1145</ele>
        <time>2021-06-19T13:09:29Z</time>
      </trkpt>
      <trkpt lat="43.00394" lon="0.16863">
        <ele>1139</ele>
        <time>2021-06-19T13:09:50Z</time>
      </trkpt>
      <trkpt lat="43.00401" lon="0.16858">
        <ele>1137</ele>
        <time>2021-06-19T13:09:57Z</time>
      </trkpt>
      <trkpt lat="43.00404" lon="0.16858">
        <ele>1136</ele>
        <time>2021-06-19T13:10:02Z</time>
      </trkpt>
      <trkpt lat="43.00411" lon="0.16854">
        <ele>1134</ele>
        <time>2021-06-19T13:10:11Z</time>
      </trkpt>
      <trkpt lat="43.00416" lon="0.16863">
        <ele>1132</ele>
        <time>2021-06-19T13:10:22Z</time>
      </trkpt>
      <trkpt lat="43.0042" lon="0.16864">
        <ele>1132</ele>
        <time>2021-06-19T13:10:45Z</time>
      </trkpt>
      <trkpt lat="43.00441" lon="0.16858">
        <ele>1130</ele>
        <time>2021-06-19T13:11:19Z</time>
      </trkpt>
      <trkpt lat="43.00445" lon="0.16858">
        <ele>1129</ele>
        <time>2021-06-19T13:11:28Z</time>
      </trkpt>
      <trkpt lat="43.00448" lon="0.16858">
        <ele>1131</ele>
        <time>2021-06-19T13:11:33Z</time>
      </trkpt>
      <trkpt lat="43.00452" lon="0.16855">
        <ele>1129</ele>
        <time>2021-06-19T13:11:38Z</time>
      </trkpt>
      <trkpt lat="43.00454" lon="0.16852">
        <ele>1125</ele>
        <time>2021-06-19T13:11:43Z</time>
      </trkpt>
      <trkpt lat="43.00457" lon="0.16849">
        <ele>1127</ele>
        <time>2021-06-19T13:11:49Z</time>
      </trkpt>
      <trkpt lat="43.00468" lon="0.16848">
        <ele>1121</ele>
        <time>2021-06-19T13:12:06Z</time>
      </trkpt>
      <trkpt lat="43.00472" lon="0.1685">
        <ele>1121</ele>
        <time>2021-06-19T13:12:11Z</time>
      </trkpt>
      <trkpt lat="43.00496" lon="0.16849">
        <ele>1118</ele>
        <time>2021-06-19T13:12:32Z</time>
      </trkpt>
      <trkpt lat="43.00509" lon="0.16848">
        <ele>1115</ele>
        <time>2021-06-19T13:12:41Z</time>
      </trkpt>
      <trkpt lat="43.00517" lon="0.16845">
        <ele>1113</ele>
        <time>2021-06-19T13:12:47Z</time>
      </trkpt>
      <trkpt lat="43.00521" lon="0.16845">
        <ele>1110</ele>
        <time>2021-06-19T13:12:50Z</time>
      </trkpt>
      <trkpt lat="43.00551" lon="0.16837">
        <ele>1100</ele>
        <time>2021-06-19T13:13:20Z</time>
      </trkpt>
      <trkpt lat="43.00555" lon="0.16837">
        <ele>1099</ele>
        <time>2021-06-19T13:13:25Z</time>
      </trkpt>
      <trkpt lat="43.00563" lon="0.16835">
        <ele>1099</ele>
        <time>2021-06-19T13:13:34Z</time>
      </trkpt>
      <trkpt lat="43.00579" lon="0.16829">
        <ele>1094</ele>
        <time>2021-06-19T13:13:55Z</time>
      </trkpt>
      <trkpt lat="43.00582" lon="0.16829">
        <ele>1094</ele>
        <time>2021-06-19T13:13:59Z</time>
      </trkpt>
      <trkpt lat="43.00585" lon="0.16831">
        <ele>1092</ele>
        <time>2021-06-19T13:14:03Z</time>
      </trkpt>
      <trkpt lat="43.00593" lon="0.16833">
        <ele>1091</ele>
        <time>2021-06-19T13:14:14Z</time>
      </trkpt>
      <trkpt lat="43.00597" lon="0.16833">
        <ele>1090</ele>
        <time>2021-06-19T13:14:18Z</time>
      </trkpt>
      <trkpt lat="43.006" lon="0.1683">
        <ele>1089</ele>
        <time>2021-06-19T13:14:26Z</time>
      </trkpt>
      <trkpt lat="43.00604" lon="0.1683">
        <ele>1089</ele>
        <time>2021-06-19T13:14:30Z</time>
      </trkpt>
      <trkpt lat="43.00611" lon="0.16832">
        <ele>1087</ele>
        <time>2021-06-19T13:14:43Z</time>
      </trkpt>
      <trkpt lat="43.00613" lon="0.16836">
        <ele>1085</ele>
        <time>2021-06-19T13:14:50Z</time>
      </trkpt>
      <trkpt lat="43.00617" lon="0.16837">
        <ele>1086</ele>
        <time>2021-06-19T13:15:56Z</time>
      </trkpt>
      <trkpt lat="43.00619" lon="0.16841">
        <ele>1084</ele>
        <time>2021-06-19T13:18:43Z</time>
      </trkpt>
      <trkpt lat="43.00618" lon="0.16845">
        <ele>1083</ele>
        <time>2021-06-19T13:18:58Z</time>
      </trkpt>
      <trkpt lat="43.00617" lon="0.1685">
        <ele>1078</ele>
        <time>2021-06-19T13:19:28Z</time>
      </trkpt>
      <trkpt lat="43.00622" lon="0.16858">
        <ele>1078</ele>
        <time>2021-06-19T13:20:03Z</time>
      </trkpt>
      <trkpt lat="43.00625" lon="0.16861">
        <ele>1076</ele>
        <time>2021-06-19T13:20:14Z</time>
      </trkpt>
      <trkpt lat="43.00629" lon="0.16863">
        <ele>1075</ele>
        <time>2021-06-19T13:20:18Z</time>
      </trkpt>
      <trkpt lat="43.00632" lon="0.16864">
        <ele>1074</ele>
        <time>2021-06-19T13:20:22Z</time>
      </trkpt>
      <trkpt lat="43.00636" lon="0.16864">
        <ele>1074</ele>
        <time>2021-06-19T13:20:28Z</time>
      </trkpt>
      <trkpt lat="43.00643" lon="0.16866">
        <ele>1070</ele>
        <time>2021-06-19T13:20:42Z</time>
      </trkpt>
      <trkpt lat="43.00644" lon="0.16871">
        <ele>1069</ele>
        <time>2021-06-19T13:20:54Z</time>
      </trkpt>
      <trkpt lat="43.00647" lon="0.16873">
        <ele>1069</ele>
        <time>2021-06-19T13:21:01Z</time>
      </trkpt>
      <trkpt lat="43.00651" lon="0.16875">
        <ele>1068</ele>
        <time>2021-06-19T13:21:06Z</time>
      </trkpt>
      <trkpt lat="43.00654" lon="0.16877">
        <ele>1067</ele>
        <time>2021-06-19T13:21:12Z</time>
      </trkpt>
      <trkpt lat="43.00658" lon="0.16878">
        <ele>1063</ele>
        <time>2021-06-19T13:21:20Z</time>
      </trkpt>
      <trkpt lat="43.00663" lon="0.16886">
        <ele>1062</ele>
        <time>2021-06-19T13:21:30Z</time>
      </trkpt>
      <trkpt lat="43.00665" lon="0.1689">
        <ele>1062</ele>
        <time>2021-06-19T13:21:33Z</time>
      </trkpt>
      <trkpt lat="43.00668" lon="0.16893">
        <ele>1062</ele>
        <time>2021-06-19T13:21:37Z</time>
      </trkpt>
      <trkpt lat="43.00676" lon="0.16896">
        <ele>1061</ele>
        <time>2021-06-19T13:21:45Z</time>
      </trkpt>
      <trkpt lat="43.00678" lon="0.16901">
        <ele>1059</ele>
        <time>2021-06-19T13:22:02Z</time>
      </trkpt>
      <trkpt lat="43.00681" lon="0.16903">
        <ele>1059</ele>
        <time>2021-06-19T13:22:08Z</time>
      </trkpt>
      <trkpt lat="43.00684" lon="0.16906">
        <ele>1064</ele>
        <time>2021-06-19T13:22:14Z</time>
      </trkpt>
      <trkpt lat="43.00687" lon="0.16909">
        <ele>1062</ele>
        <time>2021-06-19T13:22:19Z</time>
      </trkpt>
      <trkpt lat="43.00691" lon="0.16911">
        <ele>1052</ele>
        <time>2021-06-19T13:22:24Z</time>
      </trkpt>
      <trkpt lat="43.00695" lon="0.16913">
        <ele>1050</ele>
        <time>2021-06-19T13:22:30Z</time>
      </trkpt>
      <trkpt lat="43.00697" lon="0.16916">
        <ele>1050</ele>
        <time>2021-06-19T13:22:35Z</time>
      </trkpt>
      <trkpt lat="43.00701" lon="0.16918">
        <ele>1048</ele>
        <time>2021-06-19T13:22:41Z</time>
      </trkpt>
      <trkpt lat="43.00704" lon="0.16922">
        <ele>1047</ele>
        <time>2021-06-19T13:22:49Z</time>
      </trkpt>
      <trkpt lat="43.00703" lon="0.16927">
        <ele>1044</ele>
        <time>2021-06-19T13:23:03Z</time>
      </trkpt>
      <trkpt lat="43.00701" lon="0.16932">
        <ele>1064</ele>
        <time>2021-06-19T13:23:10Z</time>
      </trkpt>
      <trkpt lat="43.00701" lon="0.16932">
        <ele>1052</ele>
        <time>2021-06-19T13:23:21Z</time>
      </trkpt>
      <trkpt lat="43.00704" lon="0.16928">
        <ele>1051</ele>
        <time>2021-06-19T13:23:25Z</time>
      </trkpt>
      <trkpt lat="43.00708" lon="0.16928">
        <ele>1049</ele>
        <time>2021-06-19T13:23:29Z</time>
      </trkpt>
      <trkpt lat="43.00714" lon="0.16935">
        <ele>1044</ele>
        <time>2021-06-19T13:23:40Z</time>
      </trkpt>
      <trkpt lat="43.00717" lon="0.16939">
        <ele>1048</ele>
        <time>2021-06-19T13:23:44Z</time>
      </trkpt>
      <trkpt lat="43.0072" lon="0.1694">
        <ele>1049</ele>
        <time>2021-06-19T13:23:48Z</time>
      </trkpt>
      <trkpt lat="43.00728" lon="0.16946">
        <ele>1040</ele>
        <time>2021-06-19T13:23:57Z</time>
      </trkpt>
      <trkpt lat="43.0073" lon="0.1695">
        <ele>1039</ele>
        <time>2021-06-19T13:24:02Z</time>
      </trkpt>
      <trkpt lat="43.00742" lon="0.16962">
        <ele>1033</ele>
        <time>2021-06-19T13:24:17Z</time>
      </trkpt>
      <trkpt lat="43.00745" lon="0.16964">
        <ele>1032</ele>
        <time>2021-06-19T13:24:25Z</time>
      </trkpt>
      <trkpt lat="43.00749" lon="0.16966">
        <ele>1030</ele>
        <time>2021-06-19T13:24:32Z</time>
      </trkpt>
      <trkpt lat="43.00753" lon="0.16966">
        <ele>1029</ele>
        <time>2021-06-19T13:24:36Z</time>
      </trkpt>
      <trkpt lat="43.00757" lon="0.16969">
        <ele>1029</ele>
        <time>2021-06-19T13:24:59Z</time>
      </trkpt>
      <trkpt lat="43.0076" lon="0.1697">
        <ele>1029</ele>
        <time>2021-06-19T13:25:04Z</time>
      </trkpt>
      <trkpt lat="43.00764" lon="0.1697">
        <ele>1027</ele>
        <time>2021-06-19T13:25:11Z</time>
      </trkpt>
      <trkpt lat="43.00766" lon="0.16975">
        <ele>1025</ele>
        <time>2021-06-19T13:25:19Z</time>
      </trkpt>
      <trkpt lat="43.00775" lon="0.16979">
        <ele>1022</ele>
        <time>2021-06-19T13:25:30Z</time>
      </trkpt>
      <trkpt lat="43.00781" lon="0.16983">
        <ele>1035</ele>
        <time>2021-06-19T13:25:38Z</time>
      </trkpt>
      <trkpt lat="43.00784" lon="0.16985">
        <ele>1025</ele>
        <time>2021-06-19T13:25:44Z</time>
      </trkpt>
      <trkpt lat="43.00788" lon="0.16987">
        <ele>1021</ele>
        <time>2021-06-19T13:25:48Z</time>
      </trkpt>
      <trkpt lat="43.00796" lon="0.16989">
        <ele>1018</ele>
        <time>2021-06-19T13:25:57Z</time>
      </trkpt>
      <trkpt lat="43.008" lon="0.16989">
        <ele>1017</ele>
        <time>2021-06-19T13:26:04Z</time>
      </trkpt>
      <trkpt lat="43.00804" lon="0.16992">
        <ele>1014</ele>
        <time>2021-06-19T13:26:08Z</time>
      </trkpt>
      <trkpt lat="43.00818" lon="0.17002">
        <ele>1014</ele>
        <time>2021-06-19T13:26:24Z</time>
      </trkpt>
      <trkpt lat="43.00822" lon="0.17003">
        <ele>1012</ele>
        <time>2021-06-19T13:26:28Z</time>
      </trkpt>
      <trkpt lat="43.00838" lon="0.17014">
        <ele>1004</ele>
        <time>2021-06-19T13:26:50Z</time>
      </trkpt>
      <trkpt lat="43.00842" lon="0.17016">
        <ele>1002</ele>
        <time>2021-06-19T13:26:54Z</time>
      </trkpt>
      <trkpt lat="43.00847" lon="0.17016">
        <ele>1002</ele>
        <time>2021-06-19T13:26:58Z</time>
      </trkpt>
      <trkpt lat="43.0085" lon="0.17017">
        <ele>1001</ele>
        <time>2021-06-19T13:27:03Z</time>
      </trkpt>
      <trkpt lat="43.00857" lon="0.17021">
        <ele>1004</ele>
        <time>2021-06-19T13:27:15Z</time>
      </trkpt>
      <trkpt lat="43.00875" lon="0.17033">
        <ele>1002</ele>
        <time>2021-06-19T13:27:39Z</time>
      </trkpt>
      <trkpt lat="43.00878" lon="0.17034">
        <ele>1001</ele>
        <time>2021-06-19T13:27:42Z</time>
      </trkpt>
      <trkpt lat="43.00893" lon="0.1704">
        <ele>995</ele>
        <time>2021-06-19T13:28:03Z</time>
      </trkpt>
      <trkpt lat="43.00897" lon="0.17041">
        <ele>995</ele>
        <time>2021-06-19T13:28:08Z</time>
      </trkpt>
      <trkpt lat="43.00901" lon="0.17042">
        <ele>995</ele>
        <time>2021-06-19T13:28:15Z</time>
      </trkpt>
      <trkpt lat="43.00904" lon="0.17045">
        <ele>994</ele>
        <time>2021-06-19T13:28:20Z</time>
      </trkpt>
      <trkpt lat="43.00907" lon="0.17047">
        <ele>994</ele>
        <time>2021-06-19T13:28:25Z</time>
      </trkpt>
      <trkpt lat="43.00911" lon="0.17049">
        <ele>993</ele>
        <time>2021-06-19T13:28:31Z</time>
      </trkpt>
      <trkpt lat="43.00919" lon="0.17052">
        <ele>991</ele>
        <time>2021-06-19T13:28:39Z</time>
      </trkpt>
      <trkpt lat="43.00924" lon="0.1706">
        <ele>989</ele>
        <time>2021-06-19T13:28:48Z</time>
      </trkpt>
      <trkpt lat="43.00927" lon="0.17062">
        <ele>989</ele>
        <time>2021-06-19T13:28:52Z</time>
      </trkpt>
      <trkpt lat="43.0093" lon="0.17066">
        <ele>989</ele>
        <time>2021-06-19T13:28:58Z</time>
      </trkpt>
      <trkpt lat="43.0093" lon="0.17071">
        <ele>989</ele>
        <time>2021-06-19T13:29:06Z</time>
      </trkpt>
      <trkpt lat="43.00942" lon="0.17079">
        <ele>986</ele>
        <time>2021-06-19T13:29:17Z</time>
      </trkpt>
      <trkpt lat="43.00945" lon="0.17083">
        <ele>982</ele>
        <time>2021-06-19T13:29:21Z</time>
      </trkpt>
      <trkpt lat="43.00949" lon="0.17092">
        <ele>981</ele>
        <time>2021-06-19T13:29:28Z</time>
      </trkpt>
      <trkpt lat="43.00952" lon="0.17095">
        <ele>981</ele>
        <time>2021-06-19T13:29:32Z</time>
      </trkpt>
      <trkpt lat="43.00954" lon="0.171">
        <ele>980</ele>
        <time>2021-06-19T13:29:37Z</time>
      </trkpt>
      <trkpt lat="43.00955" lon="0.17105">
        <ele>980</ele>
        <time>2021-06-19T13:29:41Z</time>
      </trkpt>
      <trkpt lat="43.00958" lon="0.17106">
        <ele>979</ele>
        <time>2021-06-19T13:29:47Z</time>
      </trkpt>
      <trkpt lat="43.00962" lon="0.17107">
        <ele>983</ele>
        <time>2021-06-19T13:30:48Z</time>
      </trkpt>
      <trkpt lat="43.00969" lon="0.17114">
        <ele>973</ele>
        <time>2021-06-19T13:30:53Z</time>
      </trkpt>
      <trkpt lat="43.00977" lon="0.17126">
        <ele>971</ele>
        <time>2021-06-19T13:30:59Z</time>
      </trkpt>
      <trkpt lat="43.00981" lon="0.17129">
        <ele>969</ele>
        <time>2021-06-19T13:31:01Z</time>
      </trkpt>
      <trkpt lat="43.00987" lon="0.17132">
        <ele>968</ele>
        <time>2021-06-19T13:31:03Z</time>
      </trkpt>
      <trkpt lat="43.00991" lon="0.17135">
        <ele>966</ele>
        <time>2021-06-19T13:31:06Z</time>
      </trkpt>
      <trkpt lat="43.00993" lon="0.17139">
        <ele>965</ele>
        <time>2021-06-19T13:31:11Z</time>
      </trkpt>
      <trkpt lat="43.00995" lon="0.17143">
        <ele>966</ele>
        <time>2021-06-19T13:31:14Z</time>
      </trkpt>
      <trkpt lat="43.00998" lon="0.17139">
        <ele>963</ele>
        <time>2021-06-19T13:31:26Z</time>
      </trkpt>
      <trkpt lat="43.01001" lon="0.1714">
        <ele>963</ele>
        <time>2021-06-19T13:32:22Z</time>
      </trkpt>
      <trkpt lat="43.01" lon="0.17142">
        <ele>962</ele>
        <time>2021-06-19T13:33:18Z</time>
      </trkpt>
      <trkpt lat="43.00998" lon="0.17146">
        <ele>962</ele>
        <time>2021-06-19T13:33:20Z</time>
      </trkpt>
      <trkpt lat="43.00999" lon="0.17152">
        <ele>960</ele>
        <time>2021-06-19T13:33:23Z</time>
      </trkpt>
      <trkpt lat="43.01003" lon="0.17155">
        <ele>958</ele>
        <time>2021-06-19T13:33:28Z</time>
      </trkpt>
      <trkpt lat="43.01006" lon="0.17164">
        <ele>958</ele>
        <time>2021-06-19T13:33:38Z</time>
      </trkpt>
      <trkpt lat="43.01011" lon="0.17165">
        <ele>957</ele>
        <time>2021-06-19T13:33:43Z</time>
      </trkpt>
      <trkpt lat="43.01017" lon="0.1717">
        <ele>947</ele>
        <time>2021-06-19T13:34:07Z</time>
      </trkpt>
      <trkpt lat="43.01021" lon="0.1717">
        <ele>945</ele>
        <time>2021-06-19T13:34:15Z</time>
      </trkpt>
      <trkpt lat="43.01024" lon="0.1717">
        <ele>942</ele>
        <time>2021-06-19T13:34:44Z</time>
      </trkpt>
      <trkpt lat="43.01039" lon="0.17177">
        <ele>935</ele>
        <time>2021-06-19T13:34:59Z</time>
      </trkpt>
      <trkpt lat="43.01048" lon="0.17178">
        <ele>975</ele>
        <time>2021-06-19T13:35:04Z</time>
      </trkpt>
      <trkpt lat="43.01052" lon="0.17179">
        <ele>958</ele>
        <time>2021-06-19T13:35:07Z</time>
      </trkpt>
      <trkpt lat="43.01056" lon="0.17181">
        <ele>948</ele>
        <time>2021-06-19T13:35:10Z</time>
      </trkpt>
      <trkpt lat="43.01059" lon="0.17181">
        <ele>940</ele>
        <time>2021-06-19T13:35:13Z</time>
      </trkpt>
      <trkpt lat="43.01071" lon="0.17178">
        <ele>928</ele>
        <time>2021-06-19T13:35:27Z</time>
      </trkpt>
      <trkpt lat="43.01075" lon="0.17178">
        <ele>926</ele>
        <time>2021-06-19T13:35:31Z</time>
      </trkpt>
      <trkpt lat="43.01078" lon="0.1718">
        <ele>925</ele>
        <time>2021-06-19T13:35:37Z</time>
      </trkpt>
      <trkpt lat="43.01076" lon="0.17185">
        <ele>925</ele>
        <time>2021-06-19T13:35:41Z</time>
      </trkpt>
      <trkpt lat="43.01073" lon="0.17188">
        <ele>927</ele>
        <time>2021-06-19T13:35:45Z</time>
      </trkpt>
      <trkpt lat="43.01072" lon="0.17193">
        <ele>929</ele>
        <time>2021-06-19T13:35:48Z</time>
      </trkpt>
      <trkpt lat="43.01067" lon="0.17201">
        <ele>933</ele>
        <time>2021-06-19T13:35:55Z</time>
      </trkpt>
      <trkpt lat="43.01064" lon="0.17204">
        <ele>933</ele>
        <time>2021-06-19T13:35:58Z</time>
      </trkpt>
      <trkpt lat="43.01057" lon="0.17215">
        <ele>934</ele>
        <time>2021-06-19T13:36:09Z</time>
      </trkpt>
      <trkpt lat="43.0104" lon="0.1723">
        <ele>933</ele>
        <time>2021-06-19T13:36:24Z</time>
      </trkpt>
      <trkpt lat="43.01029" lon="0.17234">
        <ele>933</ele>
        <time>2021-06-19T13:36:33Z</time>
      </trkpt>
      <trkpt lat="43.0102" lon="0.17239">
        <ele>933</ele>
        <time>2021-06-19T13:36:39Z</time>
      </trkpt>
      <trkpt lat="43.01017" lon="0.17239">
        <ele>970</ele>
        <time>2021-06-19T13:36:42Z</time>
      </trkpt>
      <trkpt lat="43.01007" lon="0.17246">
        <ele>937</ele>
        <time>2021-06-19T13:36:52Z</time>
      </trkpt>
      <trkpt lat="43.01009" lon="0.1725">
        <ele>932</ele>
        <time>2021-06-19T13:37:36Z</time>
      </trkpt>
      <trkpt lat="43.01013" lon="0.1725">
        <ele>932</ele>
        <time>2021-06-19T13:37:39Z</time>
      </trkpt>
      <trkpt lat="43.01022" lon="0.17247">
        <ele>932</ele>
        <time>2021-06-19T13:37:45Z</time>
      </trkpt>
      <trkpt lat="43.01029" lon="0.17242">
        <ele>932</ele>
        <time>2021-06-19T13:37:51Z</time>
      </trkpt>
      <trkpt lat="43.01038" lon="0.17241">
        <ele>931</ele>
        <time>2021-06-19T13:37:57Z</time>
      </trkpt>
      <trkpt lat="43.01042" lon="0.17239">
        <ele>931</ele>
        <time>2021-06-19T13:38:00Z</time>
      </trkpt>
      <trkpt lat="43.01046" lon="0.17235">
        <ele>931</ele>
        <time>2021-06-19T13:38:03Z</time>
      </trkpt>
      <trkpt lat="43.01051" lon="0.17232">
        <ele>931</ele>
        <time>2021-06-19T13:38:05Z</time>
      </trkpt>
      <trkpt lat="43.01075" lon="0.172">
        <ele>932</ele>
        <time>2021-06-19T13:38:15Z</time>
      </trkpt>
      <trkpt lat="43.01078" lon="0.17195">
        <ele>932</ele>
        <time>2021-06-19T13:38:16Z</time>
      </trkpt>
      <trkpt lat="43.0108" lon="0.17187">
        <ele>930</ele>
        <time>2021-06-19T13:38:18Z</time>
      </trkpt>
      <trkpt lat="43.01084" lon="0.17181">
        <ele>928</ele>
        <time>2021-06-19T13:38:20Z</time>
      </trkpt>
      <trkpt lat="43.01089" lon="0.17177">
        <ele>927</ele>
        <time>2021-06-19T13:38:22Z</time>
      </trkpt>
      <trkpt lat="43.01095" lon="0.17175">
        <ele>926</ele>
        <time>2021-06-19T13:38:24Z</time>
      </trkpt>
      <trkpt lat="43.01101" lon="0.17174">
        <ele>957</ele>
        <time>2021-06-19T13:38:26Z</time>
      </trkpt>
      <trkpt lat="43.01116" lon="0.17171">
        <ele>938</ele>
        <time>2021-06-19T13:38:30Z</time>
      </trkpt>
      <trkpt lat="43.01122" lon="0.1717">
        <ele>934</ele>
        <time>2021-06-19T13:38:32Z</time>
      </trkpt>
      <trkpt lat="43.0113" lon="0.17167">
        <ele>928</ele>
        <time>2021-06-19T13:38:34Z</time>
      </trkpt>
      <trkpt lat="43.01139" lon="0.1717">
        <ele>924</ele>
        <time>2021-06-19T13:38:36Z</time>
      </trkpt>
      <trkpt lat="43.01143" lon="0.17174">
        <ele>920</ele>
        <time>2021-06-19T13:38:38Z</time>
      </trkpt>
      <trkpt lat="43.01145" lon="0.1718">
        <ele>919</ele>
        <time>2021-06-19T13:38:41Z</time>
      </trkpt>
      <trkpt lat="43.01142" lon="0.17181">
        <ele>915</ele>
        <time>2021-06-19T13:38:46Z</time>
      </trkpt>
      <trkpt lat="43.01138" lon="0.17179">
        <ele>914</ele>
        <time>2021-06-19T13:38:50Z</time>
      </trkpt>
      <trkpt lat="43.01134" lon="0.17179">
        <ele>912</ele>
        <time>2021-06-19T13:38:57Z</time>
      </trkpt>
      <trkpt lat="43.01129" lon="0.17181">
        <ele>910</ele>
        <time>2021-06-19T13:39:00Z</time>
      </trkpt>
      <trkpt lat="43.01128" lon="0.17185">
        <ele>913</ele>
        <time>2021-06-19T13:39:57Z</time>
      </trkpt>
      <trkpt lat="43.01128" lon="0.1719">
        <ele>919</ele>
        <time>2021-06-19T13:40:27Z</time>
      </trkpt>
      <trkpt lat="43.0113" lon="0.17194">
        <ele>913</ele>
        <time>2021-06-19T13:47:57Z</time>
      </trkpt>
      <trkpt lat="43.01133" lon="0.17191">
        <ele>913</ele>
        <time>2021-06-19T13:48:58Z</time>
      </trkpt>
      <trkpt lat="43.01133" lon="0.17187">
        <ele>913</ele>
        <time>2021-06-19T13:49:06Z</time>
      </trkpt>
      <trkpt lat="43.01134" lon="0.17182">
        <ele>912</ele>
        <time>2021-06-19T13:49:35Z</time>
      </trkpt>
      <trkpt lat="43.01137" lon="0.17179">
        <ele>911</ele>
        <time>2021-06-19T13:49:40Z</time>
      </trkpt>
      <trkpt lat="43.01141" lon="0.17178">
        <ele>911</ele>
        <time>2021-06-19T13:49:43Z</time>
      </trkpt>
      <trkpt lat="43.01143" lon="0.17175">
        <ele>910</ele>
        <time>2021-06-19T13:49:47Z</time>
      </trkpt>
      <trkpt lat="43.01147" lon="0.17176">
        <ele>910</ele>
        <time>2021-06-19T13:49:53Z</time>
      </trkpt>
      <trkpt lat="43.01151" lon="0.17174">
        <ele>954</ele>
        <time>2021-06-19T13:49:56Z</time>
      </trkpt>
      <trkpt lat="43.01154" lon="0.17173">
        <ele>922</ele>
        <time>2021-06-19T13:50:03Z</time>
      </trkpt>
      <trkpt lat="43.01157" lon="0.17177">
        <ele>911</ele>
        <time>2021-06-19T13:50:52Z</time>
      </trkpt>
      <trkpt lat="43.01164" lon="0.17178">
        <ele>907</ele>
        <time>2021-06-19T13:51:00Z</time>
      </trkpt>
      <trkpt lat="43.01175" lon="0.17187">
        <ele>907</ele>
        <time>2021-06-19T13:51:09Z</time>
      </trkpt>
      <trkpt lat="43.01183" lon="0.1719">
        <ele>909</ele>
        <time>2021-06-19T13:51:17Z</time>
      </trkpt>
      <trkpt lat="43.01187" lon="0.17191">
        <ele>909</ele>
        <time>2021-06-19T13:51:21Z</time>
      </trkpt>
      <trkpt lat="43.01198" lon="0.17195">
        <ele>905</ele>
        <time>2021-06-19T13:51:33Z</time>
      </trkpt>
      <trkpt lat="43.01202" lon="0.17197">
        <ele>904</ele>
        <time>2021-06-19T13:51:37Z</time>
      </trkpt>
      <trkpt lat="43.01205" lon="0.17198">
        <ele>903</ele>
        <time>2021-06-19T13:51:41Z</time>
      </trkpt>
      <trkpt lat="43.01213" lon="0.172">
        <ele>899</ele>
        <time>2021-06-19T13:51:49Z</time>
      </trkpt>
      <trkpt lat="43.01226" lon="0.17204">
        <ele>899</ele>
        <time>2021-06-19T13:51:58Z</time>
      </trkpt>
      <trkpt lat="43.01236" lon="0.17199">
        <ele>896</ele>
        <time>2021-06-19T13:52:09Z</time>
      </trkpt>
      <trkpt lat="43.01249" lon="0.17189">
        <ele>892</ele>
        <time>2021-06-19T13:52:26Z</time>
      </trkpt>
      <trkpt lat="43.01253" lon="0.17186">
        <ele>892</ele>
        <time>2021-06-19T13:52:33Z</time>
      </trkpt>
      <trkpt lat="43.01271" lon="0.17182">
        <ele>889</ele>
        <time>2021-06-19T13:53:01Z</time>
      </trkpt>
      <trkpt lat="43.01275" lon="0.17182">
        <ele>890</ele>
        <time>2021-06-19T13:53:07Z</time>
      </trkpt>
      <trkpt lat="43.01299" lon="0.17183">
        <ele>886</ele>
        <time>2021-06-19T13:53:37Z</time>
      </trkpt>
      <trkpt lat="43.01301" lon="0.17178">
        <ele>881</ele>
        <time>2021-06-19T13:53:43Z</time>
      </trkpt>
      <trkpt lat="43.01304" lon="0.17176">
        <ele>880</ele>
        <time>2021-06-19T13:53:55Z</time>
      </trkpt>
      <trkpt lat="43.01308" lon="0.17178">
        <ele>879</ele>
        <time>2021-06-19T13:53:59Z</time>
      </trkpt>
      <trkpt lat="43.01315" lon="0.17181">
        <ele>878</ele>
        <time>2021-06-19T13:54:06Z</time>
      </trkpt>
      <trkpt lat="43.01319" lon="0.1718">
        <ele>877</ele>
        <time>2021-06-19T13:54:09Z</time>
      </trkpt>
      <trkpt lat="43.01323" lon="0.17179">
        <ele>875</ele>
        <time>2021-06-19T13:54:12Z</time>
      </trkpt>
      <trkpt lat="43.0133" lon="0.17177">
        <ele>874</ele>
        <time>2021-06-19T13:54:20Z</time>
      </trkpt>
      <trkpt lat="43.01334" lon="0.17178">
        <ele>880</ele>
        <time>2021-06-19T13:54:24Z</time>
      </trkpt>
      <trkpt lat="43.01341" lon="0.17183">
        <ele>878</ele>
        <time>2021-06-19T13:54:30Z</time>
      </trkpt>
      <trkpt lat="43.01344" lon="0.17179">
        <ele>875</ele>
        <time>2021-06-19T13:54:33Z</time>
      </trkpt>
      <trkpt lat="43.01346" lon="0.17174">
        <ele>874</ele>
        <time>2021-06-19T13:54:37Z</time>
      </trkpt>
      <trkpt lat="43.01345" lon="0.17168">
        <ele>869</ele>
        <time>2021-06-19T13:54:39Z</time>
      </trkpt>
      <trkpt lat="43.01346" lon="0.17163">
        <ele>866</ele>
        <time>2021-06-19T13:55:09Z</time>
      </trkpt>
      <trkpt lat="43.0135" lon="0.17163">
        <ele>866</ele>
        <time>2021-06-19T13:55:29Z</time>
      </trkpt>
      <trkpt lat="43.01354" lon="0.17163">
        <ele>867</ele>
        <time>2021-06-19T13:55:35Z</time>
      </trkpt>
      <trkpt lat="43.01357" lon="0.17162">
        <ele>867</ele>
        <time>2021-06-19T13:55:40Z</time>
      </trkpt>
      <trkpt lat="43.0136" lon="0.17158">
        <ele>866</ele>
        <time>2021-06-19T13:55:49Z</time>
      </trkpt>
      <trkpt lat="43.01367" lon="0.17158">
        <ele>867</ele>
        <time>2021-06-19T13:56:02Z</time>
      </trkpt>
      <trkpt lat="43.01371" lon="0.17153">
        <ele>863</ele>
        <time>2021-06-19T13:56:07Z</time>
      </trkpt>
      <trkpt lat="43.01374" lon="0.17149">
        <ele>863</ele>
        <time>2021-06-19T13:56:16Z</time>
      </trkpt>
      <trkpt lat="43.01378" lon="0.17147">
        <ele>864</ele>
        <time>2021-06-19T13:56:23Z</time>
      </trkpt>
      <trkpt lat="43.01381" lon="0.17145">
        <ele>864</ele>
        <time>2021-06-19T13:56:32Z</time>
      </trkpt>
      <trkpt lat="43.01381" lon="0.1714">
        <ele>860</ele>
        <time>2021-06-19T13:56:38Z</time>
      </trkpt>
      <trkpt lat="43.01383" lon="0.17136">
        <ele>859</ele>
        <time>2021-06-19T13:58:12Z</time>
      </trkpt>
      <trkpt lat="43.01386" lon="0.1714">
        <ele>859</ele>
        <time>2021-06-19T13:58:18Z</time>
      </trkpt>
      <trkpt lat="43.01381" lon="0.17149">
        <ele>859</ele>
        <time>2021-06-19T13:58:24Z</time>
      </trkpt>
      <trkpt lat="43.01368" lon="0.1717">
        <ele>852</ele>
        <time>2021-06-19T13:58:43Z</time>
      </trkpt>
      <trkpt lat="43.01366" lon="0.17175">
        <ele>853</ele>
        <time>2021-06-19T13:58:47Z</time>
      </trkpt>
      <trkpt lat="43.01363" lon="0.17179">
        <ele>853</ele>
        <time>2021-06-19T13:58:51Z</time>
      </trkpt>
      <trkpt lat="43.01361" lon="0.17184">
        <ele>854</ele>
        <time>2021-06-19T13:58:56Z</time>
      </trkpt>
      <trkpt lat="43.01359" lon="0.17189">
        <ele>854</ele>
        <time>2021-06-19T13:59:00Z</time>
      </trkpt>
      <trkpt lat="43.01357" lon="0.17194">
        <ele>854</ele>
        <time>2021-06-19T13:59:04Z</time>
      </trkpt>
      <trkpt lat="43.01353" lon="0.17197">
        <ele>853</ele>
        <time>2021-06-19T13:59:08Z</time>
      </trkpt>
      <trkpt lat="43.01345" lon="0.17205">
        <ele>850</ele>
        <time>2021-06-19T13:59:14Z</time>
      </trkpt>
      <trkpt lat="43.01342" lon="0.17209">
        <ele>850</ele>
        <time>2021-06-19T13:59:18Z</time>
      </trkpt>
      <trkpt lat="43.01339" lon="0.17216">
        <ele>851</ele>
        <time>2021-06-19T13:59:23Z</time>
      </trkpt>
      <trkpt lat="43.01335" lon="0.17219">
        <ele>851</ele>
        <time>2021-06-19T13:59:26Z</time>
      </trkpt>
      <trkpt lat="43.01325" lon="0.17233">
        <ele>850</ele>
        <time>2021-06-19T13:59:40Z</time>
      </trkpt>
      <trkpt lat="43.01321" lon="0.17237">
        <ele>850</ele>
        <time>2021-06-19T13:59:43Z</time>
      </trkpt>
      <trkpt lat="43.01318" lon="0.17242">
        <ele>847</ele>
        <time>2021-06-19T13:59:47Z</time>
      </trkpt>
      <trkpt lat="43.01315" lon="0.17247">
        <ele>846</ele>
        <time>2021-06-19T13:59:50Z</time>
      </trkpt>
      <trkpt lat="43.01312" lon="0.17252">
        <ele>843</ele>
        <time>2021-06-19T13:59:54Z</time>
      </trkpt>
      <trkpt lat="43.01311" lon="0.17257">
        <ele>842</ele>
        <time>2021-06-19T13:59:58Z</time>
      </trkpt>
      <trkpt lat="43.01308" lon="0.17261">
        <ele>839</ele>
        <time>2021-06-19T14:00:01Z</time>
      </trkpt>
      <trkpt lat="43.01306" lon="0.17266">
        <ele>838</ele>
        <time>2021-06-19T14:00:05Z</time>
      </trkpt>
      <trkpt lat="43.01306" lon="0.17272">
        <ele>838</ele>
        <time>2021-06-19T14:00:08Z</time>
      </trkpt>
      <trkpt lat="43.01304" lon="0.17276">
        <ele>837</ele>
        <time>2021-06-19T14:00:11Z</time>
      </trkpt>
      <trkpt lat="43.013" lon="0.17293">
        <ele>838</ele>
        <time>2021-06-19T14:00:23Z</time>
      </trkpt>
      <trkpt lat="43.01297" lon="0.17299">
        <ele>840</ele>
        <time>2021-06-19T14:00:27Z</time>
      </trkpt>
      <trkpt lat="43.01297" lon="0.17308">
        <ele>840</ele>
        <time>2021-06-19T14:00:34Z</time>
      </trkpt>
      <trkpt lat="43.013" lon="0.17321">
        <ele>839</ele>
        <time>2021-06-19T14:00:41Z</time>
      </trkpt>
      <trkpt lat="43.01303" lon="0.17325">
        <ele>839</ele>
        <time>2021-06-19T14:00:44Z</time>
      </trkpt>
      <trkpt lat="43.01306" lon="0.17326">
        <ele>836</ele>
        <time>2021-06-19T14:00:47Z</time>
      </trkpt>
      <trkpt lat="43.0131" lon="0.17322">
        <ele>835</ele>
        <time>2021-06-19T14:00:51Z</time>
      </trkpt>
      <trkpt lat="43.01314" lon="0.17313">
        <ele>886</ele>
        <time>2021-06-19T14:00:57Z</time>
      </trkpt>
      <trkpt lat="43.01316" lon="0.17309">
        <ele>850</ele>
        <time>2021-06-19T14:01:01Z</time>
      </trkpt>
      <trkpt lat="43.01321" lon="0.17308">
        <ele>831</ele>
        <time>2021-06-19T14:01:42Z</time>
      </trkpt>
      <trkpt lat="43.01323" lon="0.17304">
        <ele>826</ele>
        <time>2021-06-19T14:01:47Z</time>
      </trkpt>
      <trkpt lat="43.01325" lon="0.17308">
        <ele>847</ele>
        <time>2021-06-19T14:01:56Z</time>
      </trkpt>
      <trkpt lat="43.01324" lon="0.17314">
        <ele>839</ele>
        <time>2021-06-19T14:02:09Z</time>
      </trkpt>
      <trkpt lat="43.01322" lon="0.17318">
        <ele>829</ele>
        <time>2021-06-19T14:02:17Z</time>
      </trkpt>
      <trkpt lat="43.01322" lon="0.17323">
        <ele>826</ele>
        <time>2021-06-19T14:02:28Z</time>
      </trkpt>
      <trkpt lat="43.01324" lon="0.17328">
        <ele>854</ele>
        <time>2021-06-19T14:02:35Z</time>
      </trkpt>
      <trkpt lat="43.01326" lon="0.17333">
        <ele>853</ele>
        <time>2021-06-19T14:02:40Z</time>
      </trkpt>
      <trkpt lat="43.01327" lon="0.17338">
        <ele>839</ele>
        <time>2021-06-19T14:02:44Z</time>
      </trkpt>
      <trkpt lat="43.01322" lon="0.17345">
        <ele>824</ele>
        <time>2021-06-19T14:03:00Z</time>
      </trkpt>
      <trkpt lat="43.01321" lon="0.1735">
        <ele>824</ele>
        <time>2021-06-19T14:03:08Z</time>
      </trkpt>
      <trkpt lat="43.01321" lon="0.17355">
        <ele>824</ele>
        <time>2021-06-19T14:03:20Z</time>
      </trkpt>
      <trkpt lat="43.01323" lon="0.17358">
        <ele>824</ele>
        <time>2021-06-19T14:03:29Z</time>
      </trkpt>
      <trkpt lat="43.01322" lon="0.17364">
        <ele>823</ele>
        <time>2021-06-19T14:03:35Z</time>
      </trkpt>
      <trkpt lat="43.01326" lon="0.17365">
        <ele>822</ele>
        <time>2021-06-19T14:03:39Z</time>
      </trkpt>
      <trkpt lat="43.0133" lon="0.17365">
        <ele>820</ele>
        <time>2021-06-19T14:03:42Z</time>
      </trkpt>
      <trkpt lat="43.01333" lon="0.17363">
        <ele>818</ele>
        <time>2021-06-19T14:03:46Z</time>
      </trkpt>
      <trkpt lat="43.01336" lon="0.17367">
        <ele>817</ele>
        <time>2021-06-19T14:04:06Z</time>
      </trkpt>
      <trkpt lat="43.0134" lon="0.17366">
        <ele>815</ele>
        <time>2021-06-19T14:04:11Z</time>
      </trkpt>
      <trkpt lat="43.01344" lon="0.17367">
        <ele>814</ele>
        <time>2021-06-19T14:04:15Z</time>
      </trkpt>
      <trkpt lat="43.01347" lon="0.17371">
        <ele>814</ele>
        <time>2021-06-19T14:04:21Z</time>
      </trkpt>
      <trkpt lat="43.01351" lon="0.17374">
        <ele>814</ele>
        <time>2021-06-19T14:04:25Z</time>
      </trkpt>
      <trkpt lat="43.01361" lon="0.17378">
        <ele>813</ele>
        <time>2021-06-19T14:04:41Z</time>
      </trkpt>
      <trkpt lat="43.01365" lon="0.17376">
        <ele>811</ele>
        <time>2021-06-19T14:04:48Z</time>
      </trkpt>
      <trkpt lat="43.01368" lon="0.17372">
        <ele>810</ele>
        <time>2021-06-19T14:04:53Z</time>
      </trkpt>
      <trkpt lat="43.0137" lon="0.17369">
        <ele>807</ele>
        <time>2021-06-19T14:04:58Z</time>
      </trkpt>
      <trkpt lat="43.01373" lon="0.17368">
        <ele>807</ele>
        <time>2021-06-19T14:05:03Z</time>
      </trkpt>
      <trkpt lat="43.01375" lon="0.17367">
        <ele>800</ele>
        <time>2021-06-19T14:05:21Z</time>
      </trkpt>
      <trkpt lat="43.01377" lon="0.17372">
        <ele>799</ele>
        <time>2021-06-19T14:05:26Z</time>
      </trkpt>
      <trkpt lat="43.01379" lon="0.17376">
        <ele>796</ele>
        <time>2021-06-19T14:05:30Z</time>
      </trkpt>
      <trkpt lat="43.01387" lon="0.17371">
        <ele>789</ele>
        <time>2021-06-19T14:05:40Z</time>
      </trkpt>
      <trkpt lat="43.01391" lon="0.17372">
        <ele>788</ele>
        <time>2021-06-19T14:05:45Z</time>
      </trkpt>
      <trkpt lat="43.01395" lon="0.17371">
        <ele>787</ele>
        <time>2021-06-19T14:05:50Z</time>
      </trkpt>
      <trkpt lat="43.01399" lon="0.17369">
        <ele>785</ele>
        <time>2021-06-19T14:05:55Z</time>
      </trkpt>
      <trkpt lat="43.01407" lon="0.17367">
        <ele>783</ele>
        <time>2021-06-19T14:06:06Z</time>
      </trkpt>
      <trkpt lat="43.0141" lon="0.17368">
        <ele>783</ele>
        <time>2021-06-19T14:06:10Z</time>
      </trkpt>
      <trkpt lat="43.01418" lon="0.1737">
        <ele>782</ele>
        <time>2021-06-19T14:06:19Z</time>
      </trkpt>
      <trkpt lat="43.01422" lon="0.1737">
        <ele>783</ele>
        <time>2021-06-19T14:06:23Z</time>
      </trkpt>
      <trkpt lat="43.01433" lon="0.17375">
        <ele>787</ele>
        <time>2021-06-19T14:06:37Z</time>
      </trkpt>
      <trkpt lat="43.01435" lon="0.1737">
        <ele>786</ele>
        <time>2021-06-19T14:06:40Z</time>
      </trkpt>
      <trkpt lat="43.01438" lon="0.17365">
        <ele>782</ele>
        <time>2021-06-19T14:06:49Z</time>
      </trkpt>
      <trkpt lat="43.01443" lon="0.17368">
        <ele>782</ele>
        <time>2021-06-19T14:06:54Z</time>
      </trkpt>
      <trkpt lat="43.01446" lon="0.17372">
        <ele>784</ele>
        <time>2021-06-19T14:06:59Z</time>
      </trkpt>
      <trkpt lat="43.01458" lon="0.17375">
        <ele>782</ele>
        <time>2021-06-19T14:07:10Z</time>
      </trkpt>
      <trkpt lat="43.01464" lon="0.17378">
        <ele>782</ele>
        <time>2021-06-19T14:07:16Z</time>
      </trkpt>
      <trkpt lat="43.01474" lon="0.17378">
        <ele>782</ele>
        <time>2021-06-19T14:07:27Z</time>
      </trkpt>
      <trkpt lat="43.01477" lon="0.17381">
        <ele>782</ele>
        <time>2021-06-19T14:07:35Z</time>
      </trkpt>
      <trkpt lat="43.01478" lon="0.17386">
        <ele>780</ele>
        <time>2021-06-19T14:07:50Z</time>
      </trkpt>
      <trkpt lat="43.01481" lon="0.17389">
        <ele>779</ele>
        <time>2021-06-19T14:07:59Z</time>
      </trkpt>
      <trkpt lat="43.01488" lon="0.17396">
        <ele>778</ele>
        <time>2021-06-19T14:08:06Z</time>
      </trkpt>
      <trkpt lat="43.01491" lon="0.174">
        <ele>779</ele>
        <time>2021-06-19T14:08:09Z</time>
      </trkpt>
      <trkpt lat="43.01494" lon="0.17409">
        <ele>775</ele>
        <time>2021-06-19T14:08:18Z</time>
      </trkpt>
      <trkpt lat="43.01494" lon="0.1741">
        <ele>766</ele>
        <time>2021-06-19T14:09:14Z</time>
      </trkpt>
      <trkpt lat="43.01494" lon="0.17416">
        <ele>765</ele>
        <time>2021-06-19T14:09:21Z</time>
      </trkpt>
      <trkpt lat="43.01495" lon="0.17422">
        <ele>763</ele>
        <time>2021-06-19T14:09:27Z</time>
      </trkpt>
      <trkpt lat="43.01497" lon="0.17432">
        <ele>763</ele>
        <time>2021-06-19T14:09:34Z</time>
      </trkpt>
      <trkpt lat="43.01497" lon="0.17427">
        <ele>760</ele>
        <time>2021-06-19T14:10:02Z</time>
      </trkpt>
      <trkpt lat="43.01493" lon="0.1743">
        <ele>759</ele>
        <time>2021-06-19T14:10:10Z</time>
      </trkpt>
      <trkpt lat="43.01493" lon="0.17436">
        <ele>759</ele>
        <time>2021-06-19T14:10:14Z</time>
      </trkpt>
      <trkpt lat="43.01493" lon="0.17441">
        <ele>755</ele>
        <time>2021-06-19T14:10:29Z</time>
      </trkpt>
      <trkpt lat="43.01495" lon="0.17446">
        <ele>755</ele>
        <time>2021-06-19T14:10:57Z</time>
      </trkpt>
      <trkpt lat="43.01493" lon="0.17447">
        <ele>756</ele>
        <time>2021-06-19T14:11:39Z</time>
      </trkpt>
      <trkpt lat="43.01491" lon="0.17443">
        <ele>752</ele>
        <time>2021-06-19T14:11:46Z</time>
      </trkpt>
      <trkpt lat="43.01487" lon="0.17442">
        <ele>762</ele>
        <time>2021-06-19T14:11:56Z</time>
      </trkpt>
      <trkpt lat="43.01484" lon="0.1744">
        <ele>765</ele>
        <time>2021-06-19T14:12:02Z</time>
      </trkpt>
      <trkpt lat="43.0148" lon="0.17443">
        <ele>759</ele>
        <time>2021-06-19T14:12:08Z</time>
      </trkpt>
      <trkpt lat="43.01479" lon="0.17448">
        <ele>751</ele>
        <time>2021-06-19T14:12:13Z</time>
      </trkpt>
      <trkpt lat="43.01479" lon="0.17454">
        <ele>747</ele>
        <time>2021-06-19T14:12:18Z</time>
      </trkpt>
      <trkpt lat="43.01479" lon="0.1746">
        <ele>744</ele>
        <time>2021-06-19T14:12:28Z</time>
      </trkpt>
      <trkpt lat="43.01483" lon="0.17459">
        <ele>741</ele>
        <time>2021-06-19T14:12:37Z</time>
      </trkpt>
      <trkpt lat="43.01484" lon="0.17464">
        <ele>753</ele>
        <time>2021-06-19T14:13:32Z</time>
      </trkpt>
      <trkpt lat="43.01481" lon="0.17465">
        <ele>741</ele>
        <time>2021-06-19T14:13:48Z</time>
      </trkpt>
      <trkpt lat="43.01479" lon="0.1747">
        <ele>776</ele>
        <time>2021-06-19T14:13:53Z</time>
      </trkpt>
      <trkpt lat="43.01476" lon="0.17474">
        <ele>744</ele>
        <time>2021-06-19T14:14:13Z</time>
      </trkpt>
      <trkpt lat="43.01478" lon="0.17478">
        <ele>742</ele>
        <time>2021-06-19T14:14:18Z</time>
      </trkpt>
      <trkpt lat="43.01481" lon="0.17482">
        <ele>737</ele>
        <time>2021-06-19T14:14:23Z</time>
      </trkpt>
      <trkpt lat="43.01484" lon="0.17485">
        <ele>735</ele>
        <time>2021-06-19T14:14:29Z</time>
      </trkpt>
      <trkpt lat="43.01488" lon="0.17484">
        <ele>732</ele>
        <time>2021-06-19T14:14:37Z</time>
      </trkpt>
      <trkpt lat="43.01491" lon="0.17489">
        <ele>761</ele>
        <time>2021-06-19T14:14:41Z</time>
      </trkpt>
      <trkpt lat="43.0149" lon="0.17495">
        <ele>757</ele>
        <time>2021-06-19T14:14:53Z</time>
      </trkpt>
      <trkpt lat="43.01493" lon="0.17497">
        <ele>734</ele>
        <time>2021-06-19T14:15:07Z</time>
      </trkpt>
      <trkpt lat="43.01497" lon="0.175">
        <ele>730</ele>
        <time>2021-06-19T14:15:16Z</time>
      </trkpt>
      <trkpt lat="43.01504" lon="0.17499">
        <ele>725</ele>
        <time>2021-06-19T14:15:30Z</time>
      </trkpt>
      <trkpt lat="43.01507" lon="0.17495">
        <ele>722</ele>
        <time>2021-06-19T14:16:02Z</time>
      </trkpt>
      <trkpt lat="43.0151" lon="0.17498">
        <ele>722</ele>
        <time>2021-06-19T14:16:08Z</time>
      </trkpt>
      <trkpt lat="43.01513" lon="0.17501">
        <ele>726</ele>
        <time>2021-06-19T14:16:21Z</time>
      </trkpt>
      <trkpt lat="43.01517" lon="0.175">
        <ele>725</ele>
        <time>2021-06-19T14:16:26Z</time>
      </trkpt>
      <trkpt lat="43.0152" lon="0.17496">
        <ele>723</ele>
        <time>2021-06-19T14:16:33Z</time>
      </trkpt>
      <trkpt lat="43.01524" lon="0.17495">
        <ele>722</ele>
        <time>2021-06-19T14:16:39Z</time>
      </trkpt>
      <trkpt lat="43.01534" lon="0.17495">
        <ele>722</ele>
        <time>2021-06-19T14:17:17Z</time>
      </trkpt>
      <trkpt lat="43.01543" lon="0.17494">
        <ele>718</ele>
        <time>2021-06-19T14:17:41Z</time>
      </trkpt>
      <trkpt lat="43.01548" lon="0.17496">
        <ele>720</ele>
        <time>2021-06-19T14:17:46Z</time>
      </trkpt>
      <trkpt lat="43.01551" lon="0.17492">
        <ele>720</ele>
        <time>2021-06-19T14:17:53Z</time>
      </trkpt>
      <trkpt lat="43.01553" lon="0.17487">
        <ele>719</ele>
        <time>2021-06-19T14:17:57Z</time>
      </trkpt>
      <trkpt lat="43.01555" lon="0.17483">
        <ele>718</ele>
        <time>2021-06-19T14:18:03Z</time>
      </trkpt>
      <trkpt lat="43.01562" lon="0.17475">
        <ele>716</ele>
        <time>2021-06-19T14:18:16Z</time>
      </trkpt>
      <trkpt lat="43.01567" lon="0.17475">
        <ele>717</ele>
        <time>2021-06-19T14:18:25Z</time>
      </trkpt>
      <trkpt lat="43.01572" lon="0.17465">
        <ele>718</ele>
        <time>2021-06-19T14:18:36Z</time>
      </trkpt>
      <trkpt lat="43.01576" lon="0.17458">
        <ele>717</ele>
        <time>2021-06-19T14:18:41Z</time>
      </trkpt>
      <trkpt lat="43.01584" lon="0.17451">
        <ele>716</ele>
        <time>2021-06-19T14:18:51Z</time>
      </trkpt>
      <trkpt lat="43.01586" lon="0.17444">
        <ele>713</ele>
        <time>2021-06-19T14:18:59Z</time>
      </trkpt>
      <trkpt lat="43.01591" lon="0.17444">
        <ele>713</ele>
        <time>2021-06-19T14:19:05Z</time>
      </trkpt>
      <trkpt lat="43.01595" lon="0.17446">
        <ele>715</ele>
        <time>2021-06-19T14:19:14Z</time>
      </trkpt>
      <trkpt lat="43.01599" lon="0.17444">
        <ele>715</ele>
        <time>2021-06-19T14:19:21Z</time>
      </trkpt>
      <trkpt lat="43.01602" lon="0.1744">
        <ele>710</ele>
        <time>2021-06-19T14:19:26Z</time>
      </trkpt>
      <trkpt lat="43.01604" lon="0.17437">
        <ele>709</ele>
        <time>2021-06-19T14:19:32Z</time>
      </trkpt>
      <trkpt lat="43.01608" lon="0.17437">
        <ele>709</ele>
        <time>2021-06-19T14:19:38Z</time>
      </trkpt>
      <trkpt lat="43.01613" lon="0.17433">
        <ele>707</ele>
        <time>2021-06-19T14:19:47Z</time>
      </trkpt>
      <trkpt lat="43.01618" lon="0.17435">
        <ele>707</ele>
        <time>2021-06-19T14:19:56Z</time>
      </trkpt>
      <trkpt lat="43.01621" lon="0.17428">
        <ele>707</ele>
        <time>2021-06-19T14:20:02Z</time>
      </trkpt>
      <trkpt lat="43.01625" lon="0.17424">
        <ele>704</ele>
        <time>2021-06-19T14:20:14Z</time>
      </trkpt>
      <trkpt lat="43.01638" lon="0.1743">
        <ele>702</ele>
        <time>2021-06-19T14:20:43Z</time>
      </trkpt>
      <trkpt lat="43.01643" lon="0.17429">
        <ele>699</ele>
        <time>2021-06-19T14:20:49Z</time>
      </trkpt>
      <trkpt lat="43.01647" lon="0.17428">
        <ele>698</ele>
        <time>2021-06-19T14:20:59Z</time>
      </trkpt>
      <trkpt lat="43.01658" lon="0.17429">
        <ele>700</ele>
        <time>2021-06-19T14:21:20Z</time>
      </trkpt>
      <trkpt lat="43.01663" lon="0.1743">
        <ele>701</ele>
        <time>2021-06-19T14:21:28Z</time>
      </trkpt>
      <trkpt lat="43.01668" lon="0.17432">
        <ele>700</ele>
        <time>2021-06-19T14:21:46Z</time>
      </trkpt>
      <trkpt lat="43.01672" lon="0.17429">
        <ele>696</ele>
        <time>2021-06-19T14:21:53Z</time>
      </trkpt>
      <trkpt lat="43.01676" lon="0.17428">
        <ele>692</ele>
        <time>2021-06-19T14:22:00Z</time>
      </trkpt>
      <trkpt lat="43.0168" lon="0.17428">
        <ele>688</ele>
        <time>2021-06-19T14:22:14Z</time>
      </trkpt>
      <trkpt lat="43.01683" lon="0.17432">
        <ele>687</ele>
        <time>2021-06-19T14:22:23Z</time>
      </trkpt>
      <trkpt lat="43.01686" lon="0.17435">
        <ele>687</ele>
        <time>2021-06-19T14:22:28Z</time>
      </trkpt>
      <trkpt lat="43.01688" lon="0.1743">
        <ele>684</ele>
        <time>2021-06-19T14:22:51Z</time>
      </trkpt>
    </trkseg>
  </trk>
</gpx>